<?xml version="1.0" encoding="UTF-8" standalone="no" ?>
<gpx xmlns="http://www.topografix.com/GPX/1/1" xmlns:xsi="http://www.w3.org/2001/XMLSchema-instance" xsi:schemaLocation="http://www.topografix.com/GPX/1/1 http://www.topografix.com/GPX/1/1/gpx.xsd" version="1.1" creator="VisuGPX - https://www.visugpx.com">
  <metadata>
    <name>L Aulp Du Seuil</name>
    <desc><![CDATA[grp_trc:[nouvelles]]]></desc>
  </metadata>
  <trk>
    <name><![CDATA[22 mai 2021 à 12:23:43]]></name>
    <cmt><![CDATA[22 mai 2021 à 12:23:43]]></cmt>
    <trkseg>
      <trkpt lat="45.95132" lon="6.73946">
        <ele>1346</ele>
        <time>2021-05-22T10:23:44Z</time>
      </trkpt>
      <trkpt lat="45.95133" lon="6.73947">
        <ele>1346</ele>
        <time>2021-05-22T10:23:45Z</time>
      </trkpt>
      <trkpt lat="45.95126" lon="6.73947">
        <ele>1346</ele>
        <time>2021-05-22T10:24:02Z</time>
      </trkpt>
      <trkpt lat="45.95123" lon="6.73953">
        <ele>1346</ele>
        <time>2021-05-22T10:24:22Z</time>
      </trkpt>
      <trkpt lat="45.95118" lon="6.73947">
        <ele>1345</ele>
        <time>2021-05-22T10:24:58Z</time>
      </trkpt>
      <trkpt lat="45.95125" lon="6.73943">
        <ele>1347</ele>
        <time>2021-05-22T10:26:39Z</time>
      </trkpt>
      <trkpt lat="45.95127" lon="6.73949">
        <ele>1347</ele>
        <time>2021-05-22T10:39:46Z</time>
      </trkpt>
      <trkpt lat="45.95124" lon="6.73956">
        <ele>1347</ele>
        <time>2021-05-22T10:40:35Z</time>
      </trkpt>
      <trkpt lat="45.95119" lon="6.73964">
        <ele>1348</ele>
        <time>2021-05-22T10:40:43Z</time>
      </trkpt>
      <trkpt lat="45.95118" lon="6.73971">
        <ele>1348</ele>
        <time>2021-05-22T10:40:47Z</time>
      </trkpt>
      <trkpt lat="45.95118" lon="6.73976">
        <ele>1348</ele>
        <time>2021-05-22T10:40:50Z</time>
      </trkpt>
      <trkpt lat="45.9512" lon="6.73981">
        <ele>1348</ele>
        <time>2021-05-22T10:40:53Z</time>
      </trkpt>
      <trkpt lat="45.95121" lon="6.73993">
        <ele>1349</ele>
        <time>2021-05-22T10:41:00Z</time>
      </trkpt>
      <trkpt lat="45.95122" lon="6.74002">
        <ele>1349</ele>
        <time>2021-05-22T10:41:05Z</time>
      </trkpt>
      <trkpt lat="45.95125" lon="6.74007">
        <ele>1350</ele>
        <time>2021-05-22T10:41:09Z</time>
      </trkpt>
      <trkpt lat="45.95128" lon="6.74014">
        <ele>1350</ele>
        <time>2021-05-22T10:41:12Z</time>
      </trkpt>
      <trkpt lat="45.95129" lon="6.74021">
        <ele>1350</ele>
        <time>2021-05-22T10:41:16Z</time>
      </trkpt>
      <trkpt lat="45.95127" lon="6.74027">
        <ele>1351</ele>
        <time>2021-05-22T10:41:24Z</time>
      </trkpt>
      <trkpt lat="45.95126" lon="6.74032">
        <ele>1351</ele>
        <time>2021-05-22T10:41:28Z</time>
      </trkpt>
      <trkpt lat="45.95122" lon="6.74035">
        <ele>1353</ele>
        <time>2021-05-22T10:41:34Z</time>
      </trkpt>
      <trkpt lat="45.95119" lon="6.7404">
        <ele>1354</ele>
        <time>2021-05-22T10:41:37Z</time>
      </trkpt>
      <trkpt lat="45.95119" lon="6.74048">
        <ele>1354</ele>
        <time>2021-05-22T10:41:44Z</time>
      </trkpt>
      <trkpt lat="45.9512" lon="6.74054">
        <ele>1355</ele>
        <time>2021-05-22T10:41:48Z</time>
      </trkpt>
      <trkpt lat="45.95124" lon="6.74057">
        <ele>1355</ele>
        <time>2021-05-22T10:41:51Z</time>
      </trkpt>
      <trkpt lat="45.95128" lon="6.74059">
        <ele>1355</ele>
        <time>2021-05-22T10:41:54Z</time>
      </trkpt>
      <trkpt lat="45.95132" lon="6.74063">
        <ele>1355</ele>
        <time>2021-05-22T10:41:57Z</time>
      </trkpt>
      <trkpt lat="45.95136" lon="6.74065">
        <ele>1355</ele>
        <time>2021-05-22T10:42:00Z</time>
      </trkpt>
      <trkpt lat="45.95144" lon="6.74079">
        <ele>1356</ele>
        <time>2021-05-22T10:42:10Z</time>
      </trkpt>
      <trkpt lat="45.95141" lon="6.74083">
        <ele>1356</ele>
        <time>2021-05-22T10:42:16Z</time>
      </trkpt>
      <trkpt lat="45.95138" lon="6.74083">
        <ele>1357</ele>
        <time>2021-05-22T10:42:19Z</time>
      </trkpt>
      <trkpt lat="45.95134" lon="6.74087">
        <ele>1358</ele>
        <time>2021-05-22T10:42:22Z</time>
      </trkpt>
      <trkpt lat="45.9513" lon="6.74087">
        <ele>1358</ele>
        <time>2021-05-22T10:42:25Z</time>
      </trkpt>
      <trkpt lat="45.95125" lon="6.7409">
        <ele>1358</ele>
        <time>2021-05-22T10:42:29Z</time>
      </trkpt>
      <trkpt lat="45.95117" lon="6.74093">
        <ele>1359</ele>
        <time>2021-05-22T10:42:37Z</time>
      </trkpt>
      <trkpt lat="45.95116" lon="6.74099">
        <ele>1359</ele>
        <time>2021-05-22T10:42:39Z</time>
      </trkpt>
      <trkpt lat="45.95112" lon="6.74098">
        <ele>1359</ele>
        <time>2021-05-22T10:42:43Z</time>
      </trkpt>
      <trkpt lat="45.95108" lon="6.74099">
        <ele>1359</ele>
        <time>2021-05-22T10:42:47Z</time>
      </trkpt>
      <trkpt lat="45.95102" lon="6.74104">
        <ele>1359</ele>
        <time>2021-05-22T10:42:54Z</time>
      </trkpt>
      <trkpt lat="45.95098" lon="6.74108">
        <ele>1359</ele>
        <time>2021-05-22T10:42:57Z</time>
      </trkpt>
      <trkpt lat="45.95095" lon="6.74112">
        <ele>1359</ele>
        <time>2021-05-22T10:43:01Z</time>
      </trkpt>
      <trkpt lat="45.95091" lon="6.74115">
        <ele>1359</ele>
        <time>2021-05-22T10:43:05Z</time>
      </trkpt>
      <trkpt lat="45.95086" lon="6.74124">
        <ele>1359</ele>
        <time>2021-05-22T10:43:11Z</time>
      </trkpt>
      <trkpt lat="45.95085" lon="6.74133">
        <ele>1360</ele>
        <time>2021-05-22T10:43:20Z</time>
      </trkpt>
      <trkpt lat="45.9509" lon="6.74167">
        <ele>1363</ele>
        <time>2021-05-22T10:43:55Z</time>
      </trkpt>
      <trkpt lat="45.95093" lon="6.74184">
        <ele>1365</ele>
        <time>2021-05-22T10:44:15Z</time>
      </trkpt>
      <trkpt lat="45.95096" lon="6.74194">
        <ele>1366</ele>
        <time>2021-05-22T10:44:23Z</time>
      </trkpt>
      <trkpt lat="45.95097" lon="6.742">
        <ele>1366</ele>
        <time>2021-05-22T10:44:27Z</time>
      </trkpt>
      <trkpt lat="45.95102" lon="6.74204">
        <ele>1368</ele>
        <time>2021-05-22T10:44:35Z</time>
      </trkpt>
      <trkpt lat="45.95105" lon="6.74208">
        <ele>1368</ele>
        <time>2021-05-22T10:44:39Z</time>
      </trkpt>
      <trkpt lat="45.95106" lon="6.74216">
        <ele>1370</ele>
        <time>2021-05-22T10:44:47Z</time>
      </trkpt>
      <trkpt lat="45.95114" lon="6.74224">
        <ele>1373</ele>
        <time>2021-05-22T10:45:01Z</time>
      </trkpt>
      <trkpt lat="45.95119" lon="6.74232">
        <ele>1375</ele>
        <time>2021-05-22T10:45:12Z</time>
      </trkpt>
      <trkpt lat="45.95123" lon="6.74233">
        <ele>1375</ele>
        <time>2021-05-22T10:45:15Z</time>
      </trkpt>
      <trkpt lat="45.95131" lon="6.74233">
        <ele>1376</ele>
        <time>2021-05-22T10:45:22Z</time>
      </trkpt>
      <trkpt lat="45.95135" lon="6.74235">
        <ele>1377</ele>
        <time>2021-05-22T10:45:30Z</time>
      </trkpt>
      <trkpt lat="45.9514" lon="6.74233">
        <ele>1377</ele>
        <time>2021-05-22T10:46:00Z</time>
      </trkpt>
      <trkpt lat="45.95158" lon="6.74237">
        <ele>1379</ele>
        <time>2021-05-22T10:46:20Z</time>
      </trkpt>
      <trkpt lat="45.95158" lon="6.74246">
        <ele>1380</ele>
        <time>2021-05-22T10:46:33Z</time>
      </trkpt>
      <trkpt lat="45.95152" lon="6.7426">
        <ele>1382</ele>
        <time>2021-05-22T10:46:50Z</time>
      </trkpt>
      <trkpt lat="45.95148" lon="6.74265">
        <ele>1385</ele>
        <time>2021-05-22T10:47:02Z</time>
      </trkpt>
      <trkpt lat="45.95146" lon="6.74269">
        <ele>1385</ele>
        <time>2021-05-22T10:47:08Z</time>
      </trkpt>
      <trkpt lat="45.95139" lon="6.74272">
        <ele>1386</ele>
        <time>2021-05-22T10:47:18Z</time>
      </trkpt>
      <trkpt lat="45.95135" lon="6.74271">
        <ele>1385</ele>
        <time>2021-05-22T10:47:21Z</time>
      </trkpt>
      <trkpt lat="45.95127" lon="6.74272">
        <ele>1386</ele>
        <time>2021-05-22T10:47:27Z</time>
      </trkpt>
      <trkpt lat="45.95122" lon="6.74275">
        <ele>1386</ele>
        <time>2021-05-22T10:47:32Z</time>
      </trkpt>
      <trkpt lat="45.95114" lon="6.74279">
        <ele>1385</ele>
        <time>2021-05-22T10:47:39Z</time>
      </trkpt>
      <trkpt lat="45.9511" lon="6.74286">
        <ele>1384</ele>
        <time>2021-05-22T10:47:47Z</time>
      </trkpt>
      <trkpt lat="45.95105" lon="6.74288">
        <ele>1382</ele>
        <time>2021-05-22T10:47:52Z</time>
      </trkpt>
      <trkpt lat="45.9508" lon="6.74286">
        <ele>1376</ele>
        <time>2021-05-22T10:48:12Z</time>
      </trkpt>
      <trkpt lat="45.95077" lon="6.74289">
        <ele>1375</ele>
        <time>2021-05-22T10:48:15Z</time>
      </trkpt>
      <trkpt lat="45.95073" lon="6.7429">
        <ele>1375</ele>
        <time>2021-05-22T10:48:19Z</time>
      </trkpt>
      <trkpt lat="45.95068" lon="6.74289">
        <ele>1374</ele>
        <time>2021-05-22T10:48:25Z</time>
      </trkpt>
      <trkpt lat="45.95063" lon="6.74286">
        <ele>1372</ele>
        <time>2021-05-22T10:48:29Z</time>
      </trkpt>
      <trkpt lat="45.95058" lon="6.74289">
        <ele>1371</ele>
        <time>2021-05-22T10:48:33Z</time>
      </trkpt>
      <trkpt lat="45.95055" lon="6.74293">
        <ele>1371</ele>
        <time>2021-05-22T10:48:36Z</time>
      </trkpt>
      <trkpt lat="45.95051" lon="6.74294">
        <ele>1370</ele>
        <time>2021-05-22T10:48:40Z</time>
      </trkpt>
      <trkpt lat="45.95041" lon="6.74295">
        <ele>1368</ele>
        <time>2021-05-22T10:48:46Z</time>
      </trkpt>
      <trkpt lat="45.95037" lon="6.74297">
        <ele>1368</ele>
        <time>2021-05-22T10:48:49Z</time>
      </trkpt>
      <trkpt lat="45.95034" lon="6.74299">
        <ele>1367</ele>
        <time>2021-05-22T10:48:53Z</time>
      </trkpt>
      <trkpt lat="45.9503" lon="6.74302">
        <ele>1367</ele>
        <time>2021-05-22T10:48:56Z</time>
      </trkpt>
      <trkpt lat="45.95023" lon="6.74308">
        <ele>1365</ele>
        <time>2021-05-22T10:49:04Z</time>
      </trkpt>
      <trkpt lat="45.95018" lon="6.74309">
        <ele>1364</ele>
        <time>2021-05-22T10:49:07Z</time>
      </trkpt>
      <trkpt lat="45.95015" lon="6.74317">
        <ele>1363</ele>
        <time>2021-05-22T10:49:12Z</time>
      </trkpt>
      <trkpt lat="45.95013" lon="6.74326">
        <ele>1363</ele>
        <time>2021-05-22T10:49:19Z</time>
      </trkpt>
      <trkpt lat="45.9501" lon="6.74325">
        <ele>1363</ele>
        <time>2021-05-22T10:49:45Z</time>
      </trkpt>
      <trkpt lat="45.95006" lon="6.74332">
        <ele>1364</ele>
        <time>2021-05-22T10:49:56Z</time>
      </trkpt>
      <trkpt lat="45.95005" lon="6.74337">
        <ele>1364</ele>
        <time>2021-05-22T10:49:58Z</time>
      </trkpt>
      <trkpt lat="45.95004" lon="6.74342">
        <ele>1363</ele>
        <time>2021-05-22T10:50:01Z</time>
      </trkpt>
      <trkpt lat="45.95" lon="6.74346">
        <ele>1363</ele>
        <time>2021-05-22T10:50:05Z</time>
      </trkpt>
      <trkpt lat="45.94999" lon="6.74352">
        <ele>1363</ele>
        <time>2021-05-22T10:50:08Z</time>
      </trkpt>
      <trkpt lat="45.94996" lon="6.74357">
        <ele>1363</ele>
        <time>2021-05-22T10:50:12Z</time>
      </trkpt>
      <trkpt lat="45.94996" lon="6.74364">
        <ele>1363</ele>
        <time>2021-05-22T10:50:16Z</time>
      </trkpt>
      <trkpt lat="45.94992" lon="6.74371">
        <ele>1363</ele>
        <time>2021-05-22T10:50:21Z</time>
      </trkpt>
      <trkpt lat="45.94991" lon="6.74381">
        <ele>1362</ele>
        <time>2021-05-22T10:50:28Z</time>
      </trkpt>
      <trkpt lat="45.94989" lon="6.7439">
        <ele>1363</ele>
        <time>2021-05-22T10:50:32Z</time>
      </trkpt>
      <trkpt lat="45.94989" lon="6.74399">
        <ele>1363</ele>
        <time>2021-05-22T10:50:37Z</time>
      </trkpt>
      <trkpt lat="45.94987" lon="6.74407">
        <ele>1362</ele>
        <time>2021-05-22T10:50:42Z</time>
      </trkpt>
      <trkpt lat="45.94984" lon="6.74414">
        <ele>1362</ele>
        <time>2021-05-22T10:50:46Z</time>
      </trkpt>
      <trkpt lat="45.94983" lon="6.74422">
        <ele>1362</ele>
        <time>2021-05-22T10:50:51Z</time>
      </trkpt>
      <trkpt lat="45.94982" lon="6.7443">
        <ele>1361</ele>
        <time>2021-05-22T10:50:55Z</time>
      </trkpt>
      <trkpt lat="45.94981" lon="6.74438">
        <ele>1361</ele>
        <time>2021-05-22T10:51:00Z</time>
      </trkpt>
      <trkpt lat="45.94982" lon="6.74467">
        <ele>1360</ele>
        <time>2021-05-22T10:51:19Z</time>
      </trkpt>
      <trkpt lat="45.94985" lon="6.74476">
        <ele>1359</ele>
        <time>2021-05-22T10:51:24Z</time>
      </trkpt>
      <trkpt lat="45.94987" lon="6.74487">
        <ele>1359</ele>
        <time>2021-05-22T10:51:29Z</time>
      </trkpt>
      <trkpt lat="45.94989" lon="6.74513">
        <ele>1358</ele>
        <time>2021-05-22T10:51:43Z</time>
      </trkpt>
      <trkpt lat="45.9499" lon="6.74523">
        <ele>1358</ele>
        <time>2021-05-22T10:51:48Z</time>
      </trkpt>
      <trkpt lat="45.94988" lon="6.74531">
        <ele>1358</ele>
        <time>2021-05-22T10:51:53Z</time>
      </trkpt>
      <trkpt lat="45.94985" lon="6.74539">
        <ele>1357</ele>
        <time>2021-05-22T10:51:57Z</time>
      </trkpt>
      <trkpt lat="45.94983" lon="6.74548">
        <ele>1358</ele>
        <time>2021-05-22T10:52:02Z</time>
      </trkpt>
      <trkpt lat="45.94978" lon="6.74574">
        <ele>1357</ele>
        <time>2021-05-22T10:52:15Z</time>
      </trkpt>
      <trkpt lat="45.94978" lon="6.74582">
        <ele>1356</ele>
        <time>2021-05-22T10:52:19Z</time>
      </trkpt>
      <trkpt lat="45.94976" lon="6.74591">
        <ele>1356</ele>
        <time>2021-05-22T10:52:24Z</time>
      </trkpt>
      <trkpt lat="45.94976" lon="6.746">
        <ele>1357</ele>
        <time>2021-05-22T10:52:29Z</time>
      </trkpt>
      <trkpt lat="45.94973" lon="6.7461">
        <ele>1356</ele>
        <time>2021-05-22T10:52:34Z</time>
      </trkpt>
      <trkpt lat="45.9497" lon="6.74617">
        <ele>1355</ele>
        <time>2021-05-22T10:52:38Z</time>
      </trkpt>
      <trkpt lat="45.94966" lon="6.74625">
        <ele>1356</ele>
        <time>2021-05-22T10:52:42Z</time>
      </trkpt>
      <trkpt lat="45.94959" lon="6.74649">
        <ele>1355</ele>
        <time>2021-05-22T10:52:56Z</time>
      </trkpt>
      <trkpt lat="45.94959" lon="6.74658">
        <ele>1355</ele>
        <time>2021-05-22T10:53:02Z</time>
      </trkpt>
      <trkpt lat="45.9496" lon="6.74667">
        <ele>1355</ele>
        <time>2021-05-22T10:53:06Z</time>
      </trkpt>
      <trkpt lat="45.94959" lon="6.74675">
        <ele>1355</ele>
        <time>2021-05-22T10:53:11Z</time>
      </trkpt>
      <trkpt lat="45.94957" lon="6.74701">
        <ele>1355</ele>
        <time>2021-05-22T10:53:25Z</time>
      </trkpt>
      <trkpt lat="45.94959" lon="6.74709">
        <ele>1355</ele>
        <time>2021-05-22T10:53:29Z</time>
      </trkpt>
      <trkpt lat="45.9496" lon="6.74724">
        <ele>1355</ele>
        <time>2021-05-22T10:53:39Z</time>
      </trkpt>
      <trkpt lat="45.94966" lon="6.74733">
        <ele>1355</ele>
        <time>2021-05-22T10:53:46Z</time>
      </trkpt>
      <trkpt lat="45.94978" lon="6.74737">
        <ele>1355</ele>
        <time>2021-05-22T10:53:56Z</time>
      </trkpt>
      <trkpt lat="45.94987" lon="6.74736">
        <ele>1355</ele>
        <time>2021-05-22T10:54:03Z</time>
      </trkpt>
      <trkpt lat="45.94998" lon="6.74729">
        <ele>1354</ele>
        <time>2021-05-22T10:54:11Z</time>
      </trkpt>
      <trkpt lat="45.95003" lon="6.74726">
        <ele>1354</ele>
        <time>2021-05-22T10:54:15Z</time>
      </trkpt>
      <trkpt lat="45.95009" lon="6.74725">
        <ele>1354</ele>
        <time>2021-05-22T10:54:20Z</time>
      </trkpt>
      <trkpt lat="45.95015" lon="6.74724">
        <ele>1353</ele>
        <time>2021-05-22T10:54:24Z</time>
      </trkpt>
      <trkpt lat="45.95025" lon="6.74728">
        <ele>1353</ele>
        <time>2021-05-22T10:54:32Z</time>
      </trkpt>
      <trkpt lat="45.9503" lon="6.74733">
        <ele>1353</ele>
        <time>2021-05-22T10:54:36Z</time>
      </trkpt>
      <trkpt lat="45.95034" lon="6.74738">
        <ele>1353</ele>
        <time>2021-05-22T10:54:41Z</time>
      </trkpt>
      <trkpt lat="45.95038" lon="6.74745">
        <ele>1353</ele>
        <time>2021-05-22T10:54:46Z</time>
      </trkpt>
      <trkpt lat="45.95044" lon="6.74749">
        <ele>1353</ele>
        <time>2021-05-22T10:54:50Z</time>
      </trkpt>
      <trkpt lat="45.95048" lon="6.74755">
        <ele>1353</ele>
        <time>2021-05-22T10:54:55Z</time>
      </trkpt>
      <trkpt lat="45.95052" lon="6.74761">
        <ele>1352</ele>
        <time>2021-05-22T10:55:00Z</time>
      </trkpt>
      <trkpt lat="45.95058" lon="6.74766">
        <ele>1351</ele>
        <time>2021-05-22T10:55:06Z</time>
      </trkpt>
      <trkpt lat="45.95067" lon="6.74779">
        <ele>1351</ele>
        <time>2021-05-22T10:55:15Z</time>
      </trkpt>
      <trkpt lat="45.95069" lon="6.74789">
        <ele>1350</ele>
        <time>2021-05-22T10:55:19Z</time>
      </trkpt>
      <trkpt lat="45.95071" lon="6.74796">
        <ele>1351</ele>
        <time>2021-05-22T10:55:22Z</time>
      </trkpt>
      <trkpt lat="45.95069" lon="6.74807">
        <ele>1350</ele>
        <time>2021-05-22T10:55:35Z</time>
      </trkpt>
      <trkpt lat="45.95071" lon="6.74817">
        <ele>1351</ele>
        <time>2021-05-22T10:55:39Z</time>
      </trkpt>
      <trkpt lat="45.95069" lon="6.74824">
        <ele>1350</ele>
        <time>2021-05-22T10:55:44Z</time>
      </trkpt>
      <trkpt lat="45.95068" lon="6.74832">
        <ele>1350</ele>
        <time>2021-05-22T10:55:49Z</time>
      </trkpt>
      <trkpt lat="45.95068" lon="6.7484">
        <ele>1349</ele>
        <time>2021-05-22T10:55:54Z</time>
      </trkpt>
      <trkpt lat="45.95069" lon="6.74849">
        <ele>1350</ele>
        <time>2021-05-22T10:55:57Z</time>
      </trkpt>
      <trkpt lat="45.95071" lon="6.74855">
        <ele>1349</ele>
        <time>2021-05-22T10:56:01Z</time>
      </trkpt>
      <trkpt lat="45.95074" lon="6.74863">
        <ele>1348</ele>
        <time>2021-05-22T10:56:05Z</time>
      </trkpt>
      <trkpt lat="45.95077" lon="6.74875">
        <ele>1348</ele>
        <time>2021-05-22T10:56:14Z</time>
      </trkpt>
      <trkpt lat="45.95082" lon="6.74891">
        <ele>1347</ele>
        <time>2021-05-22T10:56:22Z</time>
      </trkpt>
      <trkpt lat="45.95082" lon="6.749">
        <ele>1348</ele>
        <time>2021-05-22T10:56:26Z</time>
      </trkpt>
      <trkpt lat="45.95085" lon="6.74906">
        <ele>1347</ele>
        <time>2021-05-22T10:56:30Z</time>
      </trkpt>
      <trkpt lat="45.95085" lon="6.74915">
        <ele>1347</ele>
        <time>2021-05-22T10:56:35Z</time>
      </trkpt>
      <trkpt lat="45.95086" lon="6.74924">
        <ele>1346</ele>
        <time>2021-05-22T10:56:40Z</time>
      </trkpt>
      <trkpt lat="45.95082" lon="6.74933">
        <ele>1347</ele>
        <time>2021-05-22T10:56:44Z</time>
      </trkpt>
      <trkpt lat="45.9508" lon="6.7494">
        <ele>1347</ele>
        <time>2021-05-22T10:56:49Z</time>
      </trkpt>
      <trkpt lat="45.95079" lon="6.74948">
        <ele>1347</ele>
        <time>2021-05-22T10:56:53Z</time>
      </trkpt>
      <trkpt lat="45.95079" lon="6.74967">
        <ele>1346</ele>
        <time>2021-05-22T10:57:03Z</time>
      </trkpt>
      <trkpt lat="45.9508" lon="6.74976">
        <ele>1346</ele>
        <time>2021-05-22T10:57:07Z</time>
      </trkpt>
      <trkpt lat="45.95081" lon="6.74985">
        <ele>1347</ele>
        <time>2021-05-22T10:57:12Z</time>
      </trkpt>
      <trkpt lat="45.95081" lon="6.74994">
        <ele>1347</ele>
        <time>2021-05-22T10:57:17Z</time>
      </trkpt>
      <trkpt lat="45.95084" lon="6.75002">
        <ele>1347</ele>
        <time>2021-05-22T10:57:23Z</time>
      </trkpt>
      <trkpt lat="45.95087" lon="6.7501">
        <ele>1347</ele>
        <time>2021-05-22T10:57:28Z</time>
      </trkpt>
      <trkpt lat="45.95092" lon="6.75015">
        <ele>1347</ele>
        <time>2021-05-22T10:57:32Z</time>
      </trkpt>
      <trkpt lat="45.95105" lon="6.75044">
        <ele>1348</ele>
        <time>2021-05-22T10:57:51Z</time>
      </trkpt>
      <trkpt lat="45.95111" lon="6.75047">
        <ele>1348</ele>
        <time>2021-05-22T10:57:57Z</time>
      </trkpt>
      <trkpt lat="45.95144" lon="6.75086">
        <ele>1350</ele>
        <time>2021-05-22T10:58:29Z</time>
      </trkpt>
      <trkpt lat="45.95147" lon="6.75092">
        <ele>1351</ele>
        <time>2021-05-22T10:58:33Z</time>
      </trkpt>
      <trkpt lat="45.95151" lon="6.75099">
        <ele>1351</ele>
        <time>2021-05-22T10:58:39Z</time>
      </trkpt>
      <trkpt lat="45.95159" lon="6.75112">
        <ele>1352</ele>
        <time>2021-05-22T10:58:49Z</time>
      </trkpt>
      <trkpt lat="45.95164" lon="6.75117">
        <ele>1353</ele>
        <time>2021-05-22T10:58:55Z</time>
      </trkpt>
      <trkpt lat="45.95169" lon="6.75128">
        <ele>1355</ele>
        <time>2021-05-22T10:59:04Z</time>
      </trkpt>
      <trkpt lat="45.95177" lon="6.75134">
        <ele>1355</ele>
        <time>2021-05-22T10:59:15Z</time>
      </trkpt>
      <trkpt lat="45.95182" lon="6.75139">
        <ele>1356</ele>
        <time>2021-05-22T10:59:20Z</time>
      </trkpt>
      <trkpt lat="45.95213" lon="6.75164">
        <ele>1357</ele>
        <time>2021-05-22T10:59:48Z</time>
      </trkpt>
      <trkpt lat="45.95217" lon="6.7517">
        <ele>1357</ele>
        <time>2021-05-22T10:59:53Z</time>
      </trkpt>
      <trkpt lat="45.95221" lon="6.75177">
        <ele>1357</ele>
        <time>2021-05-22T10:59:58Z</time>
      </trkpt>
      <trkpt lat="45.95226" lon="6.7518">
        <ele>1357</ele>
        <time>2021-05-22T11:00:02Z</time>
      </trkpt>
      <trkpt lat="45.9523" lon="6.75186">
        <ele>1357</ele>
        <time>2021-05-22T11:00:06Z</time>
      </trkpt>
      <trkpt lat="45.95236" lon="6.75188">
        <ele>1357</ele>
        <time>2021-05-22T11:00:10Z</time>
      </trkpt>
      <trkpt lat="45.9524" lon="6.75195">
        <ele>1358</ele>
        <time>2021-05-22T11:00:15Z</time>
      </trkpt>
      <trkpt lat="45.95252" lon="6.75208">
        <ele>1358</ele>
        <time>2021-05-22T11:00:30Z</time>
      </trkpt>
      <trkpt lat="45.95261" lon="6.75221">
        <ele>1358</ele>
        <time>2021-05-22T11:00:40Z</time>
      </trkpt>
      <trkpt lat="45.95264" lon="6.75227">
        <ele>1358</ele>
        <time>2021-05-22T11:00:45Z</time>
      </trkpt>
      <trkpt lat="45.9527" lon="6.75242">
        <ele>1360</ele>
        <time>2021-05-22T11:00:56Z</time>
      </trkpt>
      <trkpt lat="45.95274" lon="6.7525">
        <ele>1360</ele>
        <time>2021-05-22T11:01:01Z</time>
      </trkpt>
      <trkpt lat="45.95275" lon="6.7526">
        <ele>1360</ele>
        <time>2021-05-22T11:01:06Z</time>
      </trkpt>
      <trkpt lat="45.95274" lon="6.75275">
        <ele>1359</ele>
        <time>2021-05-22T11:01:15Z</time>
      </trkpt>
      <trkpt lat="45.95273" lon="6.75285">
        <ele>1358</ele>
        <time>2021-05-22T11:01:20Z</time>
      </trkpt>
      <trkpt lat="45.95271" lon="6.75298">
        <ele>1359</ele>
        <time>2021-05-22T11:01:30Z</time>
      </trkpt>
      <trkpt lat="45.95265" lon="6.75314">
        <ele>1361</ele>
        <time>2021-05-22T11:01:39Z</time>
      </trkpt>
      <trkpt lat="45.9525" lon="6.75341">
        <ele>1361</ele>
        <time>2021-05-22T11:01:58Z</time>
      </trkpt>
      <trkpt lat="45.95247" lon="6.75358">
        <ele>1362</ele>
        <time>2021-05-22T11:02:09Z</time>
      </trkpt>
      <trkpt lat="45.95252" lon="6.75406">
        <ele>1364</ele>
        <time>2021-05-22T11:02:38Z</time>
      </trkpt>
      <trkpt lat="45.9525" lon="6.75422">
        <ele>1364</ele>
        <time>2021-05-22T11:02:47Z</time>
      </trkpt>
      <trkpt lat="45.95242" lon="6.75446">
        <ele>1364</ele>
        <time>2021-05-22T11:03:03Z</time>
      </trkpt>
      <trkpt lat="45.9524" lon="6.75464">
        <ele>1364</ele>
        <time>2021-05-22T11:03:13Z</time>
      </trkpt>
      <trkpt lat="45.9524" lon="6.75472">
        <ele>1363</ele>
        <time>2021-05-22T11:03:18Z</time>
      </trkpt>
      <trkpt lat="45.9524" lon="6.75482">
        <ele>1364</ele>
        <time>2021-05-22T11:03:23Z</time>
      </trkpt>
      <trkpt lat="45.9524" lon="6.75493">
        <ele>1363</ele>
        <time>2021-05-22T11:03:37Z</time>
      </trkpt>
      <trkpt lat="45.9524" lon="6.75501">
        <ele>1364</ele>
        <time>2021-05-22T11:03:42Z</time>
      </trkpt>
      <trkpt lat="45.95237" lon="6.75511">
        <ele>1363</ele>
        <time>2021-05-22T11:03:49Z</time>
      </trkpt>
      <trkpt lat="45.95238" lon="6.75521">
        <ele>1363</ele>
        <time>2021-05-22T11:03:53Z</time>
      </trkpt>
      <trkpt lat="45.95236" lon="6.75529">
        <ele>1363</ele>
        <time>2021-05-22T11:03:59Z</time>
      </trkpt>
      <trkpt lat="45.95233" lon="6.75535">
        <ele>1363</ele>
        <time>2021-05-22T11:04:03Z</time>
      </trkpt>
      <trkpt lat="45.9523" lon="6.75543">
        <ele>1363</ele>
        <time>2021-05-22T11:04:08Z</time>
      </trkpt>
      <trkpt lat="45.95226" lon="6.75548">
        <ele>1363</ele>
        <time>2021-05-22T11:04:13Z</time>
      </trkpt>
      <trkpt lat="45.95222" lon="6.75555">
        <ele>1363</ele>
        <time>2021-05-22T11:04:18Z</time>
      </trkpt>
      <trkpt lat="45.95217" lon="6.7556">
        <ele>1364</ele>
        <time>2021-05-22T11:04:23Z</time>
      </trkpt>
      <trkpt lat="45.95212" lon="6.75569">
        <ele>1363</ele>
        <time>2021-05-22T11:04:28Z</time>
      </trkpt>
      <trkpt lat="45.9521" lon="6.75575">
        <ele>1363</ele>
        <time>2021-05-22T11:04:33Z</time>
      </trkpt>
      <trkpt lat="45.95209" lon="6.75583">
        <ele>1363</ele>
        <time>2021-05-22T11:04:38Z</time>
      </trkpt>
      <trkpt lat="45.95205" lon="6.7559">
        <ele>1363</ele>
        <time>2021-05-22T11:04:42Z</time>
      </trkpt>
      <trkpt lat="45.95207" lon="6.75607">
        <ele>1363</ele>
        <time>2021-05-22T11:04:52Z</time>
      </trkpt>
      <trkpt lat="45.95205" lon="6.75614">
        <ele>1362</ele>
        <time>2021-05-22T11:04:56Z</time>
      </trkpt>
      <trkpt lat="45.95204" lon="6.75625">
        <ele>1363</ele>
        <time>2021-05-22T11:05:00Z</time>
      </trkpt>
      <trkpt lat="45.95207" lon="6.75633">
        <ele>1363</ele>
        <time>2021-05-22T11:05:05Z</time>
      </trkpt>
      <trkpt lat="45.95208" lon="6.75641">
        <ele>1362</ele>
        <time>2021-05-22T11:05:10Z</time>
      </trkpt>
      <trkpt lat="45.95211" lon="6.75649">
        <ele>1362</ele>
        <time>2021-05-22T11:05:14Z</time>
      </trkpt>
      <trkpt lat="45.95212" lon="6.75657">
        <ele>1361</ele>
        <time>2021-05-22T11:05:18Z</time>
      </trkpt>
      <trkpt lat="45.95214" lon="6.75666">
        <ele>1362</ele>
        <time>2021-05-22T11:05:22Z</time>
      </trkpt>
      <trkpt lat="45.95216" lon="6.75691">
        <ele>1361</ele>
        <time>2021-05-22T11:05:37Z</time>
      </trkpt>
      <trkpt lat="45.95213" lon="6.757">
        <ele>1361</ele>
        <time>2021-05-22T11:05:42Z</time>
      </trkpt>
      <trkpt lat="45.95212" lon="6.75708">
        <ele>1361</ele>
        <time>2021-05-22T11:05:46Z</time>
      </trkpt>
      <trkpt lat="45.95209" lon="6.75715">
        <ele>1362</ele>
        <time>2021-05-22T11:05:50Z</time>
      </trkpt>
      <trkpt lat="45.95207" lon="6.75722">
        <ele>1362</ele>
        <time>2021-05-22T11:05:55Z</time>
      </trkpt>
      <trkpt lat="45.95204" lon="6.75729">
        <ele>1362</ele>
        <time>2021-05-22T11:06:03Z</time>
      </trkpt>
      <trkpt lat="45.952" lon="6.75736">
        <ele>1362</ele>
        <time>2021-05-22T11:06:11Z</time>
      </trkpt>
      <trkpt lat="45.95194" lon="6.75758">
        <ele>1365</ele>
        <time>2021-05-22T11:06:32Z</time>
      </trkpt>
      <trkpt lat="45.95191" lon="6.75777">
        <ele>1366</ele>
        <time>2021-05-22T11:06:48Z</time>
      </trkpt>
      <trkpt lat="45.95179" lon="6.75795">
        <ele>1372</ele>
        <time>2021-05-22T11:07:21Z</time>
      </trkpt>
      <trkpt lat="45.95158" lon="6.75808">
        <ele>1374</ele>
        <time>2021-05-22T11:07:43Z</time>
      </trkpt>
      <trkpt lat="45.95149" lon="6.75825">
        <ele>1376</ele>
        <time>2021-05-22T11:08:09Z</time>
      </trkpt>
      <trkpt lat="45.95117" lon="6.7587">
        <ele>1379</ele>
        <time>2021-05-22T11:08:50Z</time>
      </trkpt>
      <trkpt lat="45.95112" lon="6.7589">
        <ele>1381</ele>
        <time>2021-05-22T11:09:02Z</time>
      </trkpt>
      <trkpt lat="45.95075" lon="6.75924">
        <ele>1386</ele>
        <time>2021-05-22T11:09:45Z</time>
      </trkpt>
      <trkpt lat="45.95064" lon="6.75938">
        <ele>1387</ele>
        <time>2021-05-22T11:10:00Z</time>
      </trkpt>
      <trkpt lat="45.9506" lon="6.75958">
        <ele>1388</ele>
        <time>2021-05-22T11:10:11Z</time>
      </trkpt>
      <trkpt lat="45.95059" lon="6.75967">
        <ele>1390</ele>
        <time>2021-05-22T11:10:20Z</time>
      </trkpt>
      <trkpt lat="45.95058" lon="6.75975">
        <ele>1390</ele>
        <time>2021-05-22T11:10:25Z</time>
      </trkpt>
      <trkpt lat="45.95059" lon="6.75983">
        <ele>1391</ele>
        <time>2021-05-22T11:10:30Z</time>
      </trkpt>
      <trkpt lat="45.95059" lon="6.75993">
        <ele>1391</ele>
        <time>2021-05-22T11:10:36Z</time>
      </trkpt>
      <trkpt lat="45.95056" lon="6.76023">
        <ele>1393</ele>
        <time>2021-05-22T11:10:57Z</time>
      </trkpt>
      <trkpt lat="45.95052" lon="6.7603">
        <ele>1394</ele>
        <time>2021-05-22T11:11:02Z</time>
      </trkpt>
      <trkpt lat="45.95047" lon="6.76033">
        <ele>1394</ele>
        <time>2021-05-22T11:11:07Z</time>
      </trkpt>
      <trkpt lat="45.95041" lon="6.76037">
        <ele>1395</ele>
        <time>2021-05-22T11:11:11Z</time>
      </trkpt>
      <trkpt lat="45.95031" lon="6.76045">
        <ele>1395</ele>
        <time>2021-05-22T11:11:20Z</time>
      </trkpt>
      <trkpt lat="45.95021" lon="6.76078">
        <ele>1397</ele>
        <time>2021-05-22T11:11:41Z</time>
      </trkpt>
      <trkpt lat="45.95019" lon="6.76086">
        <ele>1398</ele>
        <time>2021-05-22T11:11:46Z</time>
      </trkpt>
      <trkpt lat="45.95018" lon="6.76103">
        <ele>1398</ele>
        <time>2021-05-22T11:11:55Z</time>
      </trkpt>
      <trkpt lat="45.9502" lon="6.76111">
        <ele>1398</ele>
        <time>2021-05-22T11:11:59Z</time>
      </trkpt>
      <trkpt lat="45.95024" lon="6.76118">
        <ele>1399</ele>
        <time>2021-05-22T11:12:05Z</time>
      </trkpt>
      <trkpt lat="45.95027" lon="6.76129">
        <ele>1400</ele>
        <time>2021-05-22T11:12:12Z</time>
      </trkpt>
      <trkpt lat="45.95032" lon="6.76135">
        <ele>1400</ele>
        <time>2021-05-22T11:12:17Z</time>
      </trkpt>
      <trkpt lat="45.95037" lon="6.76145">
        <ele>1402</ele>
        <time>2021-05-22T11:12:27Z</time>
      </trkpt>
      <trkpt lat="45.95046" lon="6.76153">
        <ele>1403</ele>
        <time>2021-05-22T11:12:35Z</time>
      </trkpt>
      <trkpt lat="45.95048" lon="6.76165">
        <ele>1404</ele>
        <time>2021-05-22T11:12:44Z</time>
      </trkpt>
      <trkpt lat="45.9505" lon="6.76172">
        <ele>1404</ele>
        <time>2021-05-22T11:12:48Z</time>
      </trkpt>
      <trkpt lat="45.95054" lon="6.76179">
        <ele>1404</ele>
        <time>2021-05-22T11:13:03Z</time>
      </trkpt>
      <trkpt lat="45.95059" lon="6.76192">
        <ele>1406</ele>
        <time>2021-05-22T11:13:15Z</time>
      </trkpt>
      <trkpt lat="45.95067" lon="6.76203">
        <ele>1407</ele>
        <time>2021-05-22T11:13:27Z</time>
      </trkpt>
      <trkpt lat="45.95075" lon="6.7621">
        <ele>1408</ele>
        <time>2021-05-22T11:13:37Z</time>
      </trkpt>
      <trkpt lat="45.95079" lon="6.76216">
        <ele>1408</ele>
        <time>2021-05-22T11:13:46Z</time>
      </trkpt>
      <trkpt lat="45.9509" lon="6.76232">
        <ele>1411</ele>
        <time>2021-05-22T11:14:06Z</time>
      </trkpt>
      <trkpt lat="45.95095" lon="6.76279">
        <ele>1413</ele>
        <time>2021-05-22T11:14:42Z</time>
      </trkpt>
      <trkpt lat="45.95098" lon="6.76286">
        <ele>1413</ele>
        <time>2021-05-22T11:14:47Z</time>
      </trkpt>
      <trkpt lat="45.95099" lon="6.76316">
        <ele>1416</ele>
        <time>2021-05-22T11:15:06Z</time>
      </trkpt>
      <trkpt lat="45.95102" lon="6.76324">
        <ele>1416</ele>
        <time>2021-05-22T11:15:12Z</time>
      </trkpt>
      <trkpt lat="45.95105" lon="6.76332">
        <ele>1417</ele>
        <time>2021-05-22T11:15:17Z</time>
      </trkpt>
      <trkpt lat="45.95104" lon="6.7634">
        <ele>1417</ele>
        <time>2021-05-22T11:15:22Z</time>
      </trkpt>
      <trkpt lat="45.95106" lon="6.76347">
        <ele>1417</ele>
        <time>2021-05-22T11:15:25Z</time>
      </trkpt>
      <trkpt lat="45.95111" lon="6.76353">
        <ele>1418</ele>
        <time>2021-05-22T11:15:31Z</time>
      </trkpt>
      <trkpt lat="45.95118" lon="6.76359">
        <ele>1418</ele>
        <time>2021-05-22T11:15:41Z</time>
      </trkpt>
      <trkpt lat="45.95124" lon="6.76365">
        <ele>1419</ele>
        <time>2021-05-22T11:15:51Z</time>
      </trkpt>
      <trkpt lat="45.95125" lon="6.76371">
        <ele>1420</ele>
        <time>2021-05-22T11:15:55Z</time>
      </trkpt>
      <trkpt lat="45.95129" lon="6.76383">
        <ele>1420</ele>
        <time>2021-05-22T11:16:06Z</time>
      </trkpt>
      <trkpt lat="45.9513" lon="6.7639">
        <ele>1421</ele>
        <time>2021-05-22T11:16:09Z</time>
      </trkpt>
      <trkpt lat="45.95131" lon="6.76395">
        <ele>1421</ele>
        <time>2021-05-22T11:16:12Z</time>
      </trkpt>
      <trkpt lat="45.95135" lon="6.76401">
        <ele>1421</ele>
        <time>2021-05-22T11:16:18Z</time>
      </trkpt>
      <trkpt lat="45.95138" lon="6.76416">
        <ele>1421</ele>
        <time>2021-05-22T11:16:30Z</time>
      </trkpt>
      <trkpt lat="45.9514" lon="6.76428">
        <ele>1421</ele>
        <time>2021-05-22T11:16:44Z</time>
      </trkpt>
      <trkpt lat="45.95144" lon="6.76434">
        <ele>1422</ele>
        <time>2021-05-22T11:16:50Z</time>
      </trkpt>
      <trkpt lat="45.95147" lon="6.76447">
        <ele>1422</ele>
        <time>2021-05-22T11:16:59Z</time>
      </trkpt>
      <trkpt lat="45.95151" lon="6.76451">
        <ele>1422</ele>
        <time>2021-05-22T11:17:19Z</time>
      </trkpt>
      <trkpt lat="45.95156" lon="6.76464">
        <ele>1422</ele>
        <time>2021-05-22T11:17:29Z</time>
      </trkpt>
      <trkpt lat="45.95159" lon="6.7647">
        <ele>1422</ele>
        <time>2021-05-22T11:17:34Z</time>
      </trkpt>
      <trkpt lat="45.95163" lon="6.76473">
        <ele>1422</ele>
        <time>2021-05-22T11:17:36Z</time>
      </trkpt>
      <trkpt lat="45.9517" lon="6.76487">
        <ele>1421</ele>
        <time>2021-05-22T11:17:44Z</time>
      </trkpt>
      <trkpt lat="45.9518" lon="6.76499">
        <ele>1420</ele>
        <time>2021-05-22T11:17:54Z</time>
      </trkpt>
      <trkpt lat="45.95196" lon="6.76528">
        <ele>1420</ele>
        <time>2021-05-22T11:18:15Z</time>
      </trkpt>
      <trkpt lat="45.95211" lon="6.7656">
        <ele>1417</ele>
        <time>2021-05-22T11:18:40Z</time>
      </trkpt>
      <trkpt lat="45.95213" lon="6.76569">
        <ele>1417</ele>
        <time>2021-05-22T11:18:45Z</time>
      </trkpt>
      <trkpt lat="45.95223" lon="6.76588">
        <ele>1415</ele>
        <time>2021-05-22T11:18:58Z</time>
      </trkpt>
      <trkpt lat="45.95242" lon="6.76608">
        <ele>1414</ele>
        <time>2021-05-22T11:19:14Z</time>
      </trkpt>
      <trkpt lat="45.95254" lon="6.76628">
        <ele>1414</ele>
        <time>2021-05-22T11:19:31Z</time>
      </trkpt>
      <trkpt lat="45.95256" lon="6.76637">
        <ele>1414</ele>
        <time>2021-05-22T11:19:36Z</time>
      </trkpt>
      <trkpt lat="45.9526" lon="6.76643">
        <ele>1414</ele>
        <time>2021-05-22T11:19:40Z</time>
      </trkpt>
      <trkpt lat="45.95265" lon="6.76648">
        <ele>1414</ele>
        <time>2021-05-22T11:19:45Z</time>
      </trkpt>
      <trkpt lat="45.95285" lon="6.76674">
        <ele>1412</ele>
        <time>2021-05-22T11:20:10Z</time>
      </trkpt>
      <trkpt lat="45.9529" lon="6.76684">
        <ele>1411</ele>
        <time>2021-05-22T11:20:17Z</time>
      </trkpt>
      <trkpt lat="45.95295" lon="6.76693">
        <ele>1411</ele>
        <time>2021-05-22T11:20:23Z</time>
      </trkpt>
      <trkpt lat="45.9531" lon="6.76702">
        <ele>1411</ele>
        <time>2021-05-22T11:20:34Z</time>
      </trkpt>
      <trkpt lat="45.95311" lon="6.76703">
        <ele>1412</ele>
        <time>2021-05-22T11:20:57Z</time>
      </trkpt>
      <trkpt lat="45.95313" lon="6.76713">
        <ele>1411</ele>
        <time>2021-05-22T11:21:17Z</time>
      </trkpt>
      <trkpt lat="45.95316" lon="6.7672">
        <ele>1412</ele>
        <time>2021-05-22T11:21:21Z</time>
      </trkpt>
      <trkpt lat="45.9532" lon="6.76724">
        <ele>1412</ele>
        <time>2021-05-22T11:21:26Z</time>
      </trkpt>
      <trkpt lat="45.95324" lon="6.76729">
        <ele>1412</ele>
        <time>2021-05-22T11:21:31Z</time>
      </trkpt>
      <trkpt lat="45.95328" lon="6.76736">
        <ele>1412</ele>
        <time>2021-05-22T11:21:39Z</time>
      </trkpt>
      <trkpt lat="45.95333" lon="6.76741">
        <ele>1412</ele>
        <time>2021-05-22T11:21:44Z</time>
      </trkpt>
      <trkpt lat="45.95337" lon="6.7675">
        <ele>1412</ele>
        <time>2021-05-22T11:21:50Z</time>
      </trkpt>
      <trkpt lat="45.95338" lon="6.76759">
        <ele>1412</ele>
        <time>2021-05-22T11:21:53Z</time>
      </trkpt>
      <trkpt lat="45.95345" lon="6.76774">
        <ele>1412</ele>
        <time>2021-05-22T11:22:02Z</time>
      </trkpt>
      <trkpt lat="45.9535" lon="6.76779">
        <ele>1412</ele>
        <time>2021-05-22T11:22:08Z</time>
      </trkpt>
      <trkpt lat="45.95353" lon="6.76786">
        <ele>1412</ele>
        <time>2021-05-22T11:22:13Z</time>
      </trkpt>
      <trkpt lat="45.95356" lon="6.76796">
        <ele>1413</ele>
        <time>2021-05-22T11:22:21Z</time>
      </trkpt>
      <trkpt lat="45.95356" lon="6.76805">
        <ele>1414</ele>
        <time>2021-05-22T11:22:26Z</time>
      </trkpt>
      <trkpt lat="45.9536" lon="6.76811">
        <ele>1414</ele>
        <time>2021-05-22T11:22:30Z</time>
      </trkpt>
      <trkpt lat="45.95362" lon="6.76828">
        <ele>1416</ele>
        <time>2021-05-22T11:22:41Z</time>
      </trkpt>
      <trkpt lat="45.95364" lon="6.76838">
        <ele>1417</ele>
        <time>2021-05-22T11:22:50Z</time>
      </trkpt>
      <trkpt lat="45.95364" lon="6.76847">
        <ele>1416</ele>
        <time>2021-05-22T11:22:56Z</time>
      </trkpt>
      <trkpt lat="45.95366" lon="6.76858">
        <ele>1417</ele>
        <time>2021-05-22T11:23:05Z</time>
      </trkpt>
      <trkpt lat="45.95373" lon="6.76873">
        <ele>1417</ele>
        <time>2021-05-22T11:23:17Z</time>
      </trkpt>
      <trkpt lat="45.95375" lon="6.76879">
        <ele>1418</ele>
        <time>2021-05-22T11:23:21Z</time>
      </trkpt>
      <trkpt lat="45.95377" lon="6.76887">
        <ele>1419</ele>
        <time>2021-05-22T11:23:29Z</time>
      </trkpt>
      <trkpt lat="45.95379" lon="6.76896">
        <ele>1421</ele>
        <time>2021-05-22T11:23:35Z</time>
      </trkpt>
      <trkpt lat="45.95378" lon="6.76923">
        <ele>1423</ele>
        <time>2021-05-22T11:23:55Z</time>
      </trkpt>
      <trkpt lat="45.95379" lon="6.76933">
        <ele>1423</ele>
        <time>2021-05-22T11:24:02Z</time>
      </trkpt>
      <trkpt lat="45.95382" lon="6.76941">
        <ele>1423</ele>
        <time>2021-05-22T11:24:07Z</time>
      </trkpt>
      <trkpt lat="45.95385" lon="6.76948">
        <ele>1424</ele>
        <time>2021-05-22T11:24:12Z</time>
      </trkpt>
      <trkpt lat="45.95387" lon="6.76955">
        <ele>1422</ele>
        <time>2021-05-22T11:24:17Z</time>
      </trkpt>
      <trkpt lat="45.95393" lon="6.76967">
        <ele>1424</ele>
        <time>2021-05-22T11:24:27Z</time>
      </trkpt>
      <trkpt lat="45.95398" lon="6.76971">
        <ele>1424</ele>
        <time>2021-05-22T11:24:32Z</time>
      </trkpt>
      <trkpt lat="45.95403" lon="6.76975">
        <ele>1425</ele>
        <time>2021-05-22T11:24:38Z</time>
      </trkpt>
      <trkpt lat="45.95403" lon="6.76987">
        <ele>1427</ele>
        <time>2021-05-22T11:24:51Z</time>
      </trkpt>
      <trkpt lat="45.95406" lon="6.76999">
        <ele>1427</ele>
        <time>2021-05-22T11:24:59Z</time>
      </trkpt>
      <trkpt lat="45.9541" lon="6.77005">
        <ele>1429</ele>
        <time>2021-05-22T11:25:05Z</time>
      </trkpt>
      <trkpt lat="45.95424" lon="6.77011">
        <ele>1432</ele>
        <time>2021-05-22T11:25:23Z</time>
      </trkpt>
      <trkpt lat="45.95431" lon="6.77012">
        <ele>1432</ele>
        <time>2021-05-22T11:25:29Z</time>
      </trkpt>
      <trkpt lat="45.95437" lon="6.77018">
        <ele>1433</ele>
        <time>2021-05-22T11:25:41Z</time>
      </trkpt>
      <trkpt lat="45.95442" lon="6.77015">
        <ele>1433</ele>
        <time>2021-05-22T11:25:46Z</time>
      </trkpt>
      <trkpt lat="45.95448" lon="6.77015">
        <ele>1434</ele>
        <time>2021-05-22T11:25:51Z</time>
      </trkpt>
      <trkpt lat="45.95454" lon="6.77017">
        <ele>1435</ele>
        <time>2021-05-22T11:25:58Z</time>
      </trkpt>
      <trkpt lat="45.95459" lon="6.77018">
        <ele>1436</ele>
        <time>2021-05-22T11:26:04Z</time>
      </trkpt>
      <trkpt lat="45.95467" lon="6.77021">
        <ele>1437</ele>
        <time>2021-05-22T11:26:13Z</time>
      </trkpt>
      <trkpt lat="45.95473" lon="6.77028">
        <ele>1439</ele>
        <time>2021-05-22T11:26:24Z</time>
      </trkpt>
      <trkpt lat="45.95493" lon="6.77035">
        <ele>1442</ele>
        <time>2021-05-22T11:26:48Z</time>
      </trkpt>
      <trkpt lat="45.95499" lon="6.77029">
        <ele>1442</ele>
        <time>2021-05-22T11:27:05Z</time>
      </trkpt>
      <trkpt lat="45.95507" lon="6.7703">
        <ele>1443</ele>
        <time>2021-05-22T11:27:30Z</time>
      </trkpt>
      <trkpt lat="45.95513" lon="6.77033">
        <ele>1445</ele>
        <time>2021-05-22T11:27:36Z</time>
      </trkpt>
      <trkpt lat="45.95518" lon="6.7704">
        <ele>1445</ele>
        <time>2021-05-22T11:27:42Z</time>
      </trkpt>
      <trkpt lat="45.95521" lon="6.77049">
        <ele>1446</ele>
        <time>2021-05-22T11:27:51Z</time>
      </trkpt>
      <trkpt lat="45.95525" lon="6.77058">
        <ele>1447</ele>
        <time>2021-05-22T11:27:59Z</time>
      </trkpt>
      <trkpt lat="45.95538" lon="6.77077">
        <ele>1451</ele>
        <time>2021-05-22T11:28:22Z</time>
      </trkpt>
      <trkpt lat="45.95539" lon="6.77085">
        <ele>1452</ele>
        <time>2021-05-22T11:28:30Z</time>
      </trkpt>
      <trkpt lat="45.95546" lon="6.77094">
        <ele>1454</ele>
        <time>2021-05-22T11:28:43Z</time>
      </trkpt>
      <trkpt lat="45.95552" lon="6.77104">
        <ele>1455</ele>
        <time>2021-05-22T11:28:55Z</time>
      </trkpt>
      <trkpt lat="45.95559" lon="6.77108">
        <ele>1457</ele>
        <time>2021-05-22T11:29:07Z</time>
      </trkpt>
      <trkpt lat="45.9558" lon="6.77137">
        <ele>1460</ele>
        <time>2021-05-22T11:29:40Z</time>
      </trkpt>
      <trkpt lat="45.95586" lon="6.77144">
        <ele>1461</ele>
        <time>2021-05-22T11:29:47Z</time>
      </trkpt>
      <trkpt lat="45.9559" lon="6.77149">
        <ele>1462</ele>
        <time>2021-05-22T11:29:53Z</time>
      </trkpt>
      <trkpt lat="45.95598" lon="6.7715">
        <ele>1462</ele>
        <time>2021-05-22T11:29:59Z</time>
      </trkpt>
      <trkpt lat="45.95606" lon="6.77154">
        <ele>1462</ele>
        <time>2021-05-22T11:30:04Z</time>
      </trkpt>
      <trkpt lat="45.9561" lon="6.7716">
        <ele>1464</ele>
        <time>2021-05-22T11:30:15Z</time>
      </trkpt>
      <trkpt lat="45.95614" lon="6.77171">
        <ele>1466</ele>
        <time>2021-05-22T11:30:27Z</time>
      </trkpt>
      <trkpt lat="45.9562" lon="6.77184">
        <ele>1467</ele>
        <time>2021-05-22T11:30:39Z</time>
      </trkpt>
      <trkpt lat="45.95624" lon="6.77194">
        <ele>1468</ele>
        <time>2021-05-22T11:30:51Z</time>
      </trkpt>
      <trkpt lat="45.95628" lon="6.772">
        <ele>1469</ele>
        <time>2021-05-22T11:30:55Z</time>
      </trkpt>
      <trkpt lat="45.95629" lon="6.77207">
        <ele>1469</ele>
        <time>2021-05-22T11:31:00Z</time>
      </trkpt>
      <trkpt lat="45.95631" lon="6.77223">
        <ele>1471</ele>
        <time>2021-05-22T11:31:11Z</time>
      </trkpt>
      <trkpt lat="45.95631" lon="6.77235">
        <ele>1471</ele>
        <time>2021-05-22T11:31:19Z</time>
      </trkpt>
      <trkpt lat="45.95629" lon="6.77253">
        <ele>1472</ele>
        <time>2021-05-22T11:31:28Z</time>
      </trkpt>
      <trkpt lat="45.95632" lon="6.77311">
        <ele>1476</ele>
        <time>2021-05-22T11:32:06Z</time>
      </trkpt>
      <trkpt lat="45.95633" lon="6.77317">
        <ele>1477</ele>
        <time>2021-05-22T11:32:12Z</time>
      </trkpt>
      <trkpt lat="45.95638" lon="6.77331">
        <ele>1479</ele>
        <time>2021-05-22T11:32:27Z</time>
      </trkpt>
      <trkpt lat="45.95639" lon="6.77344">
        <ele>1480</ele>
        <time>2021-05-22T11:32:38Z</time>
      </trkpt>
      <trkpt lat="45.95642" lon="6.77351">
        <ele>1481</ele>
        <time>2021-05-22T11:32:45Z</time>
      </trkpt>
      <trkpt lat="45.95644" lon="6.7736">
        <ele>1482</ele>
        <time>2021-05-22T11:32:57Z</time>
      </trkpt>
      <trkpt lat="45.95643" lon="6.7738">
        <ele>1486</ele>
        <time>2021-05-22T11:33:13Z</time>
      </trkpt>
      <trkpt lat="45.95643" lon="6.77387">
        <ele>1487</ele>
        <time>2021-05-22T11:33:21Z</time>
      </trkpt>
      <trkpt lat="45.95649" lon="6.77401">
        <ele>1489</ele>
        <time>2021-05-22T11:33:34Z</time>
      </trkpt>
      <trkpt lat="45.9566" lon="6.77404">
        <ele>1491</ele>
        <time>2021-05-22T11:33:47Z</time>
      </trkpt>
      <trkpt lat="45.95664" lon="6.77406">
        <ele>1492</ele>
        <time>2021-05-22T11:33:52Z</time>
      </trkpt>
      <trkpt lat="45.95669" lon="6.77414">
        <ele>1494</ele>
        <time>2021-05-22T11:34:01Z</time>
      </trkpt>
      <trkpt lat="45.95675" lon="6.77413">
        <ele>1494</ele>
        <time>2021-05-22T11:34:06Z</time>
      </trkpt>
      <trkpt lat="45.95683" lon="6.77415">
        <ele>1494</ele>
        <time>2021-05-22T11:34:14Z</time>
      </trkpt>
      <trkpt lat="45.9569" lon="6.77418">
        <ele>1496</ele>
        <time>2021-05-22T11:34:22Z</time>
      </trkpt>
      <trkpt lat="45.95711" lon="6.77421">
        <ele>1499</ele>
        <time>2021-05-22T11:34:49Z</time>
      </trkpt>
      <trkpt lat="45.95721" lon="6.77415">
        <ele>1501</ele>
        <time>2021-05-22T11:35:09Z</time>
      </trkpt>
      <trkpt lat="45.95732" lon="6.77417">
        <ele>1503</ele>
        <time>2021-05-22T11:35:21Z</time>
      </trkpt>
      <trkpt lat="45.95749" lon="6.77436">
        <ele>1506</ele>
        <time>2021-05-22T11:35:52Z</time>
      </trkpt>
      <trkpt lat="45.95761" lon="6.77452">
        <ele>1507</ele>
        <time>2021-05-22T11:36:13Z</time>
      </trkpt>
      <trkpt lat="45.95775" lon="6.77481">
        <ele>1508</ele>
        <time>2021-05-22T11:36:40Z</time>
      </trkpt>
      <trkpt lat="45.9579" lon="6.77503">
        <ele>1510</ele>
        <time>2021-05-22T11:37:02Z</time>
      </trkpt>
      <trkpt lat="45.95799" lon="6.77528">
        <ele>1512</ele>
        <time>2021-05-22T11:37:26Z</time>
      </trkpt>
      <trkpt lat="45.958" lon="6.77561">
        <ele>1514</ele>
        <time>2021-05-22T11:37:52Z</time>
      </trkpt>
      <trkpt lat="45.95794" lon="6.77583">
        <ele>1514</ele>
        <time>2021-05-22T11:38:05Z</time>
      </trkpt>
      <trkpt lat="45.95784" lon="6.77598">
        <ele>1515</ele>
        <time>2021-05-22T11:38:17Z</time>
      </trkpt>
      <trkpt lat="45.95785" lon="6.77619">
        <ele>1517</ele>
        <time>2021-05-22T11:38:29Z</time>
      </trkpt>
      <trkpt lat="45.95794" lon="6.77645">
        <ele>1520</ele>
        <time>2021-05-22T11:38:53Z</time>
      </trkpt>
      <trkpt lat="45.95802" lon="6.77664">
        <ele>1523</ele>
        <time>2021-05-22T11:39:17Z</time>
      </trkpt>
      <trkpt lat="45.95803" lon="6.77686">
        <ele>1527</ele>
        <time>2021-05-22T11:39:51Z</time>
      </trkpt>
      <trkpt lat="45.95816" lon="6.77701">
        <ele>1530</ele>
        <time>2021-05-22T11:40:12Z</time>
      </trkpt>
      <trkpt lat="45.95834" lon="6.77699">
        <ele>1533</ele>
        <time>2021-05-22T11:40:35Z</time>
      </trkpt>
      <trkpt lat="45.95842" lon="6.77718">
        <ele>1540</ele>
        <time>2021-05-22T11:41:23Z</time>
      </trkpt>
      <trkpt lat="45.95849" lon="6.77723">
        <ele>1543</ele>
        <time>2021-05-22T11:41:38Z</time>
      </trkpt>
      <trkpt lat="45.95853" lon="6.77728">
        <ele>1546</ele>
        <time>2021-05-22T11:41:56Z</time>
      </trkpt>
      <trkpt lat="45.95857" lon="6.77735">
        <ele>1549</ele>
        <time>2021-05-22T11:42:20Z</time>
      </trkpt>
      <trkpt lat="45.95855" lon="6.77749">
        <ele>1551</ele>
        <time>2021-05-22T11:42:38Z</time>
      </trkpt>
      <trkpt lat="45.95856" lon="6.77759">
        <ele>1553</ele>
        <time>2021-05-22T11:42:50Z</time>
      </trkpt>
      <trkpt lat="45.95867" lon="6.77759">
        <ele>1555</ele>
        <time>2021-05-22T11:43:03Z</time>
      </trkpt>
      <trkpt lat="45.95874" lon="6.77754">
        <ele>1557</ele>
        <time>2021-05-22T11:43:16Z</time>
      </trkpt>
      <trkpt lat="45.9588" lon="6.77748">
        <ele>1557</ele>
        <time>2021-05-22T11:43:24Z</time>
      </trkpt>
      <trkpt lat="45.95891" lon="6.77745">
        <ele>1562</ele>
        <time>2021-05-22T11:43:57Z</time>
      </trkpt>
      <trkpt lat="45.95895" lon="6.77739">
        <ele>1563</ele>
        <time>2021-05-22T11:44:09Z</time>
      </trkpt>
      <trkpt lat="45.95896" lon="6.77751">
        <ele>1566</ele>
        <time>2021-05-22T11:44:33Z</time>
      </trkpt>
      <trkpt lat="45.95898" lon="6.77762">
        <ele>1568</ele>
        <time>2021-05-22T11:44:45Z</time>
      </trkpt>
      <trkpt lat="45.95903" lon="6.77756">
        <ele>1569</ele>
        <time>2021-05-22T11:45:03Z</time>
      </trkpt>
      <trkpt lat="45.95906" lon="6.77749">
        <ele>1571</ele>
        <time>2021-05-22T11:45:15Z</time>
      </trkpt>
      <trkpt lat="45.95913" lon="6.77745">
        <ele>1571</ele>
        <time>2021-05-22T11:45:21Z</time>
      </trkpt>
      <trkpt lat="45.95919" lon="6.7774">
        <ele>1572</ele>
        <time>2021-05-22T11:45:31Z</time>
      </trkpt>
      <trkpt lat="45.95924" lon="6.77734">
        <ele>1573</ele>
        <time>2021-05-22T11:45:36Z</time>
      </trkpt>
      <trkpt lat="45.95931" lon="6.77731">
        <ele>1574</ele>
        <time>2021-05-22T11:45:44Z</time>
      </trkpt>
      <trkpt lat="45.95934" lon="6.77723">
        <ele>1575</ele>
        <time>2021-05-22T11:45:49Z</time>
      </trkpt>
      <trkpt lat="45.95944" lon="6.77725">
        <ele>1577</ele>
        <time>2021-05-22T11:46:11Z</time>
      </trkpt>
      <trkpt lat="45.9595" lon="6.77729">
        <ele>1579</ele>
        <time>2021-05-22T11:46:23Z</time>
      </trkpt>
      <trkpt lat="45.9595" lon="6.77741">
        <ele>1581</ele>
        <time>2021-05-22T11:46:35Z</time>
      </trkpt>
      <trkpt lat="45.95952" lon="6.77749">
        <ele>1583</ele>
        <time>2021-05-22T11:46:45Z</time>
      </trkpt>
      <trkpt lat="45.95951" lon="6.77759">
        <ele>1582</ele>
        <time>2021-05-22T11:46:51Z</time>
      </trkpt>
      <trkpt lat="45.95952" lon="6.77766">
        <ele>1582</ele>
        <time>2021-05-22T11:46:57Z</time>
      </trkpt>
      <trkpt lat="45.95946" lon="6.77763">
        <ele>1582</ele>
        <time>2021-05-22T11:47:19Z</time>
      </trkpt>
      <trkpt lat="45.95947" lon="6.77772">
        <ele>1582</ele>
        <time>2021-05-22T11:47:26Z</time>
      </trkpt>
      <trkpt lat="45.95945" lon="6.77782">
        <ele>1583</ele>
        <time>2021-05-22T11:47:32Z</time>
      </trkpt>
      <trkpt lat="45.95945" lon="6.7779">
        <ele>1583</ele>
        <time>2021-05-22T11:47:36Z</time>
      </trkpt>
      <trkpt lat="45.95947" lon="6.77797">
        <ele>1582</ele>
        <time>2021-05-22T11:47:40Z</time>
      </trkpt>
      <trkpt lat="45.95953" lon="6.77805">
        <ele>1581</ele>
        <time>2021-05-22T11:47:48Z</time>
      </trkpt>
      <trkpt lat="45.95957" lon="6.77811">
        <ele>1581</ele>
        <time>2021-05-22T11:47:53Z</time>
      </trkpt>
      <trkpt lat="45.95961" lon="6.77817">
        <ele>1581</ele>
        <time>2021-05-22T11:47:58Z</time>
      </trkpt>
      <trkpt lat="45.95967" lon="6.77824">
        <ele>1580</ele>
        <time>2021-05-22T11:48:07Z</time>
      </trkpt>
      <trkpt lat="45.95972" lon="6.7783">
        <ele>1580</ele>
        <time>2021-05-22T11:48:13Z</time>
      </trkpt>
      <trkpt lat="45.95977" lon="6.77834">
        <ele>1580</ele>
        <time>2021-05-22T11:48:18Z</time>
      </trkpt>
      <trkpt lat="45.95988" lon="6.77841">
        <ele>1579</ele>
        <time>2021-05-22T11:48:27Z</time>
      </trkpt>
      <trkpt lat="45.95993" lon="6.77846">
        <ele>1579</ele>
        <time>2021-05-22T11:48:31Z</time>
      </trkpt>
      <trkpt lat="45.95995" lon="6.77854">
        <ele>1578</ele>
        <time>2021-05-22T11:48:35Z</time>
      </trkpt>
      <trkpt lat="45.95989" lon="6.7786">
        <ele>1577</ele>
        <time>2021-05-22T11:48:40Z</time>
      </trkpt>
      <trkpt lat="45.95983" lon="6.77863">
        <ele>1576</ele>
        <time>2021-05-22T11:48:44Z</time>
      </trkpt>
      <trkpt lat="45.95979" lon="6.77868">
        <ele>1576</ele>
        <time>2021-05-22T11:48:48Z</time>
      </trkpt>
      <trkpt lat="45.95975" lon="6.77884">
        <ele>1573</ele>
        <time>2021-05-22T11:48:55Z</time>
      </trkpt>
      <trkpt lat="45.9599" lon="6.77888">
        <ele>1574</ele>
        <time>2021-05-22T11:49:22Z</time>
      </trkpt>
      <trkpt lat="45.95995" lon="6.77881">
        <ele>1572</ele>
        <time>2021-05-22T11:49:40Z</time>
      </trkpt>
      <trkpt lat="45.96002" lon="6.77881">
        <ele>1572</ele>
        <time>2021-05-22T11:49:52Z</time>
      </trkpt>
      <trkpt lat="45.96007" lon="6.77887">
        <ele>1572</ele>
        <time>2021-05-22T11:49:56Z</time>
      </trkpt>
      <trkpt lat="45.96022" lon="6.77903">
        <ele>1568</ele>
        <time>2021-05-22T11:50:10Z</time>
      </trkpt>
      <trkpt lat="45.96026" lon="6.77911">
        <ele>1569</ele>
        <time>2021-05-22T11:50:16Z</time>
      </trkpt>
      <trkpt lat="45.96028" lon="6.77918">
        <ele>1568</ele>
        <time>2021-05-22T11:50:22Z</time>
      </trkpt>
      <trkpt lat="45.96034" lon="6.7792">
        <ele>1569</ele>
        <time>2021-05-22T11:50:28Z</time>
      </trkpt>
      <trkpt lat="45.9604" lon="6.77924">
        <ele>1567</ele>
        <time>2021-05-22T11:50:33Z</time>
      </trkpt>
      <trkpt lat="45.96046" lon="6.77923">
        <ele>1567</ele>
        <time>2021-05-22T11:50:37Z</time>
      </trkpt>
      <trkpt lat="45.96051" lon="6.77926">
        <ele>1566</ele>
        <time>2021-05-22T11:50:40Z</time>
      </trkpt>
      <trkpt lat="45.96057" lon="6.77931">
        <ele>1566</ele>
        <time>2021-05-22T11:50:45Z</time>
      </trkpt>
      <trkpt lat="45.96072" lon="6.77946">
        <ele>1565</ele>
        <time>2021-05-22T11:51:00Z</time>
      </trkpt>
      <trkpt lat="45.96077" lon="6.77951">
        <ele>1565</ele>
        <time>2021-05-22T11:51:05Z</time>
      </trkpt>
      <trkpt lat="45.96079" lon="6.7796">
        <ele>1563</ele>
        <time>2021-05-22T11:51:14Z</time>
      </trkpt>
      <trkpt lat="45.96083" lon="6.77967">
        <ele>1565</ele>
        <time>2021-05-22T11:51:20Z</time>
      </trkpt>
      <trkpt lat="45.96086" lon="6.77976">
        <ele>1565</ele>
        <time>2021-05-22T11:51:45Z</time>
      </trkpt>
      <trkpt lat="45.96091" lon="6.77983">
        <ele>1567</ele>
        <time>2021-05-22T11:52:05Z</time>
      </trkpt>
      <trkpt lat="45.96087" lon="6.77995">
        <ele>1567</ele>
        <time>2021-05-22T11:52:15Z</time>
      </trkpt>
      <trkpt lat="45.96089" lon="6.78003">
        <ele>1566</ele>
        <time>2021-05-22T11:52:20Z</time>
      </trkpt>
      <trkpt lat="45.96089" lon="6.78015">
        <ele>1564</ele>
        <time>2021-05-22T11:52:29Z</time>
      </trkpt>
      <trkpt lat="45.9609" lon="6.78025">
        <ele>1564</ele>
        <time>2021-05-22T11:52:33Z</time>
      </trkpt>
      <trkpt lat="45.9609" lon="6.78033">
        <ele>1564</ele>
        <time>2021-05-22T11:52:38Z</time>
      </trkpt>
      <trkpt lat="45.96087" lon="6.7804">
        <ele>1563</ele>
        <time>2021-05-22T11:52:44Z</time>
      </trkpt>
      <trkpt lat="45.96083" lon="6.78043">
        <ele>1560</ele>
        <time>2021-05-22T11:52:50Z</time>
      </trkpt>
      <trkpt lat="45.96077" lon="6.78039">
        <ele>1559</ele>
        <time>2021-05-22T11:53:00Z</time>
      </trkpt>
      <trkpt lat="45.96072" lon="6.78039">
        <ele>1558</ele>
        <time>2021-05-22T11:53:07Z</time>
      </trkpt>
      <trkpt lat="45.96072" lon="6.78049">
        <ele>1557</ele>
        <time>2021-05-22T11:53:27Z</time>
      </trkpt>
      <trkpt lat="45.96062" lon="6.78051">
        <ele>1557</ele>
        <time>2021-05-22T11:53:57Z</time>
      </trkpt>
      <trkpt lat="45.96058" lon="6.78064">
        <ele>1556</ele>
        <time>2021-05-22T11:54:14Z</time>
      </trkpt>
      <trkpt lat="45.96052" lon="6.78068">
        <ele>1556</ele>
        <time>2021-05-22T11:54:24Z</time>
      </trkpt>
      <trkpt lat="45.96059" lon="6.78072">
        <ele>1556</ele>
        <time>2021-05-22T11:54:49Z</time>
      </trkpt>
      <trkpt lat="45.96065" lon="6.78064">
        <ele>1555</ele>
        <time>2021-05-22T11:55:03Z</time>
      </trkpt>
      <trkpt lat="45.96068" lon="6.7805">
        <ele>1555</ele>
        <time>2021-05-22T11:55:20Z</time>
      </trkpt>
      <trkpt lat="45.96067" lon="6.78052">
        <ele>1557</ele>
        <time>2021-05-22T11:56:46Z</time>
      </trkpt>
      <trkpt lat="45.96074" lon="6.7806">
        <ele>1558</ele>
        <time>2021-05-22T11:57:08Z</time>
      </trkpt>
      <trkpt lat="45.96081" lon="6.78069">
        <ele>1561</ele>
        <time>2021-05-22T11:57:28Z</time>
      </trkpt>
      <trkpt lat="45.96085" lon="6.78073">
        <ele>1561</ele>
        <time>2021-05-22T11:57:32Z</time>
      </trkpt>
      <trkpt lat="45.96084" lon="6.78083">
        <ele>1564</ele>
        <time>2021-05-22T11:57:52Z</time>
      </trkpt>
      <trkpt lat="45.96092" lon="6.78113">
        <ele>1567</ele>
        <time>2021-05-22T11:58:21Z</time>
      </trkpt>
      <trkpt lat="45.96099" lon="6.78134">
        <ele>1573</ele>
        <time>2021-05-22T11:59:03Z</time>
      </trkpt>
      <trkpt lat="45.96095" lon="6.78154">
        <ele>1578</ele>
        <time>2021-05-22T11:59:57Z</time>
      </trkpt>
      <trkpt lat="45.96106" lon="6.78168">
        <ele>1586</ele>
        <time>2021-05-22T12:01:00Z</time>
      </trkpt>
      <trkpt lat="45.96105" lon="6.78181">
        <ele>1594</ele>
        <time>2021-05-22T12:01:56Z</time>
      </trkpt>
      <trkpt lat="45.96118" lon="6.78192">
        <ele>1602</ele>
        <time>2021-05-22T12:03:02Z</time>
      </trkpt>
      <trkpt lat="45.96123" lon="6.78212">
        <ele>1609</ele>
        <time>2021-05-22T12:04:26Z</time>
      </trkpt>
      <trkpt lat="45.96126" lon="6.78229">
        <ele>1616</ele>
        <time>2021-05-22T12:05:14Z</time>
      </trkpt>
      <trkpt lat="45.96128" lon="6.78242">
        <ele>1623</ele>
        <time>2021-05-22T12:06:02Z</time>
      </trkpt>
      <trkpt lat="45.96122" lon="6.78249">
        <ele>1628</ele>
        <time>2021-05-22T12:06:26Z</time>
      </trkpt>
      <trkpt lat="45.9613" lon="6.78252">
        <ele>1629</ele>
        <time>2021-05-22T12:07:04Z</time>
      </trkpt>
      <trkpt lat="45.96134" lon="6.78247">
        <ele>1633</ele>
        <time>2021-05-22T12:07:36Z</time>
      </trkpt>
      <trkpt lat="45.96156" lon="6.78242">
        <ele>1644</ele>
        <time>2021-05-22T12:08:48Z</time>
      </trkpt>
      <trkpt lat="45.96151" lon="6.78267">
        <ele>1655</ele>
        <time>2021-05-22T12:10:04Z</time>
      </trkpt>
      <trkpt lat="45.96155" lon="6.78278">
        <ele>1661</ele>
        <time>2021-05-22T12:10:52Z</time>
      </trkpt>
      <trkpt lat="45.96172" lon="6.78287">
        <ele>1665</ele>
        <time>2021-05-22T12:11:41Z</time>
      </trkpt>
      <trkpt lat="45.96184" lon="6.783">
        <ele>1667</ele>
        <time>2021-05-22T12:12:18Z</time>
      </trkpt>
      <trkpt lat="45.96213" lon="6.78316">
        <ele>1672</ele>
        <time>2021-05-22T12:13:12Z</time>
      </trkpt>
      <trkpt lat="45.96231" lon="6.78324">
        <ele>1673</ele>
        <time>2021-05-22T12:13:40Z</time>
      </trkpt>
      <trkpt lat="45.96263" lon="6.7836">
        <ele>1677</ele>
        <time>2021-05-22T12:14:37Z</time>
      </trkpt>
      <trkpt lat="45.96278" lon="6.78367">
        <ele>1678</ele>
        <time>2021-05-22T12:14:59Z</time>
      </trkpt>
      <trkpt lat="45.96296" lon="6.7837">
        <ele>1683</ele>
        <time>2021-05-22T12:15:55Z</time>
      </trkpt>
      <trkpt lat="45.96311" lon="6.78372">
        <ele>1689</ele>
        <time>2021-05-22T12:16:27Z</time>
      </trkpt>
      <trkpt lat="45.96317" lon="6.78384">
        <ele>1690</ele>
        <time>2021-05-22T12:17:47Z</time>
      </trkpt>
      <trkpt lat="45.96322" lon="6.7838">
        <ele>1692</ele>
        <time>2021-05-22T12:19:13Z</time>
      </trkpt>
      <trkpt lat="45.96329" lon="6.78382">
        <ele>1694</ele>
        <time>2021-05-22T12:20:13Z</time>
      </trkpt>
      <trkpt lat="45.96329" lon="6.78393">
        <ele>1696</ele>
        <time>2021-05-22T12:20:25Z</time>
      </trkpt>
      <trkpt lat="45.9633" lon="6.78401">
        <ele>1696</ele>
        <time>2021-05-22T12:20:49Z</time>
      </trkpt>
      <trkpt lat="45.96336" lon="6.7841">
        <ele>1698</ele>
        <time>2021-05-22T12:21:20Z</time>
      </trkpt>
      <trkpt lat="45.9634" lon="6.78417">
        <ele>1698</ele>
        <time>2021-05-22T12:21:44Z</time>
      </trkpt>
      <trkpt lat="45.96345" lon="6.78411">
        <ele>1701</ele>
        <time>2021-05-22T12:22:28Z</time>
      </trkpt>
      <trkpt lat="45.96352" lon="6.78417">
        <ele>1703</ele>
        <time>2021-05-22T12:22:48Z</time>
      </trkpt>
      <trkpt lat="45.96351" lon="6.78427">
        <ele>1706</ele>
        <time>2021-05-22T12:23:04Z</time>
      </trkpt>
      <trkpt lat="45.96351" lon="6.78439">
        <ele>1709</ele>
        <time>2021-05-22T12:23:17Z</time>
      </trkpt>
      <trkpt lat="45.96353" lon="6.78446">
        <ele>1713</ele>
        <time>2021-05-22T12:24:24Z</time>
      </trkpt>
      <trkpt lat="45.96358" lon="6.7845">
        <ele>1713</ele>
        <time>2021-05-22T12:25:01Z</time>
      </trkpt>
      <trkpt lat="45.96359" lon="6.78454">
        <ele>1720</ele>
        <time>2021-05-22T12:25:44Z</time>
      </trkpt>
      <trkpt lat="45.96359" lon="6.78456">
        <ele>1720</ele>
        <time>2021-05-22T12:26:38Z</time>
      </trkpt>
      <trkpt lat="45.96362" lon="6.78465">
        <ele>1722</ele>
        <time>2021-05-22T12:26:56Z</time>
      </trkpt>
      <trkpt lat="45.96368" lon="6.78472">
        <ele>1722</ele>
        <time>2021-05-22T12:27:20Z</time>
      </trkpt>
      <trkpt lat="45.96365" lon="6.78481">
        <ele>1722</ele>
        <time>2021-05-22T12:27:33Z</time>
      </trkpt>
      <trkpt lat="45.9637" lon="6.78484">
        <ele>1724</ele>
        <time>2021-05-22T12:27:57Z</time>
      </trkpt>
      <trkpt lat="45.96378" lon="6.78483">
        <ele>1724</ele>
        <time>2021-05-22T12:28:21Z</time>
      </trkpt>
      <trkpt lat="45.96384" lon="6.78492">
        <ele>1724</ele>
        <time>2021-05-22T12:29:06Z</time>
      </trkpt>
      <trkpt lat="45.96388" lon="6.78498">
        <ele>1722</ele>
        <time>2021-05-22T12:29:27Z</time>
      </trkpt>
      <trkpt lat="45.96392" lon="6.78508">
        <ele>1722</ele>
        <time>2021-05-22T12:29:53Z</time>
      </trkpt>
      <trkpt lat="45.96397" lon="6.7851">
        <ele>1723</ele>
        <time>2021-05-22T12:30:11Z</time>
      </trkpt>
      <trkpt lat="45.96397" lon="6.78521">
        <ele>1725</ele>
        <time>2021-05-22T12:30:29Z</time>
      </trkpt>
      <trkpt lat="45.964" lon="6.78531">
        <ele>1724</ele>
        <time>2021-05-22T12:30:52Z</time>
      </trkpt>
      <trkpt lat="45.96407" lon="6.78534">
        <ele>1725</ele>
        <time>2021-05-22T12:31:10Z</time>
      </trkpt>
      <trkpt lat="45.96412" lon="6.78534">
        <ele>1726</ele>
        <time>2021-05-22T12:31:22Z</time>
      </trkpt>
      <trkpt lat="45.96419" lon="6.78534">
        <ele>1727</ele>
        <time>2021-05-22T12:31:52Z</time>
      </trkpt>
      <trkpt lat="45.96425" lon="6.78533">
        <ele>1731</ele>
        <time>2021-05-22T12:32:16Z</time>
      </trkpt>
      <trkpt lat="45.96428" lon="6.78541">
        <ele>1732</ele>
        <time>2021-05-22T12:32:40Z</time>
      </trkpt>
      <trkpt lat="45.96435" lon="6.78553">
        <ele>1732</ele>
        <time>2021-05-22T12:32:51Z</time>
      </trkpt>
      <trkpt lat="45.96443" lon="6.78546">
        <ele>1735</ele>
        <time>2021-05-22T12:33:20Z</time>
      </trkpt>
      <trkpt lat="45.96445" lon="6.78551">
        <ele>1737</ele>
        <time>2021-05-22T12:34:16Z</time>
      </trkpt>
      <trkpt lat="45.96441" lon="6.78559">
        <ele>1740</ele>
        <time>2021-05-22T12:34:40Z</time>
      </trkpt>
      <trkpt lat="45.9644" lon="6.78568">
        <ele>1742</ele>
        <time>2021-05-22T12:34:52Z</time>
      </trkpt>
      <trkpt lat="45.96446" lon="6.78577">
        <ele>1744</ele>
        <time>2021-05-22T12:35:22Z</time>
      </trkpt>
      <trkpt lat="45.96455" lon="6.78578">
        <ele>1750</ele>
        <time>2021-05-22T12:35:46Z</time>
      </trkpt>
      <trkpt lat="45.96459" lon="6.78583">
        <ele>1752</ele>
        <time>2021-05-22T12:36:37Z</time>
      </trkpt>
      <trkpt lat="45.96462" lon="6.7859">
        <ele>1755</ele>
        <time>2021-05-22T12:37:08Z</time>
      </trkpt>
      <trkpt lat="45.96463" lon="6.78598">
        <ele>1758</ele>
        <time>2021-05-22T12:37:19Z</time>
      </trkpt>
      <trkpt lat="45.96471" lon="6.78606">
        <ele>1760</ele>
        <time>2021-05-22T12:37:43Z</time>
      </trkpt>
      <trkpt lat="45.96476" lon="6.78615">
        <ele>1762</ele>
        <time>2021-05-22T12:37:57Z</time>
      </trkpt>
      <trkpt lat="45.96478" lon="6.78624">
        <ele>1763</ele>
        <time>2021-05-22T12:38:39Z</time>
      </trkpt>
      <trkpt lat="45.96484" lon="6.78627">
        <ele>1765</ele>
        <time>2021-05-22T12:39:03Z</time>
      </trkpt>
      <trkpt lat="45.96484" lon="6.78634">
        <ele>1765</ele>
        <time>2021-05-22T12:39:33Z</time>
      </trkpt>
      <trkpt lat="45.96489" lon="6.7863">
        <ele>1767</ele>
        <time>2021-05-22T12:40:03Z</time>
      </trkpt>
      <trkpt lat="45.96496" lon="6.78629">
        <ele>1770</ele>
        <time>2021-05-22T12:41:32Z</time>
      </trkpt>
      <trkpt lat="45.96497" lon="6.78633">
        <ele>1772</ele>
        <time>2021-05-22T12:42:39Z</time>
      </trkpt>
      <trkpt lat="45.96504" lon="6.78637">
        <ele>1773</ele>
        <time>2021-05-22T12:42:52Z</time>
      </trkpt>
      <trkpt lat="45.96511" lon="6.78642">
        <ele>1773</ele>
        <time>2021-05-22T12:43:16Z</time>
      </trkpt>
      <trkpt lat="45.9651" lon="6.7865">
        <ele>1776</ele>
        <time>2021-05-22T12:43:32Z</time>
      </trkpt>
      <trkpt lat="45.96504" lon="6.78643">
        <ele>1775</ele>
        <time>2021-05-22T12:45:43Z</time>
      </trkpt>
      <trkpt lat="45.96501" lon="6.78636">
        <ele>1774</ele>
        <time>2021-05-22T12:45:53Z</time>
      </trkpt>
      <trkpt lat="45.96496" lon="6.78632">
        <ele>1773</ele>
        <time>2021-05-22T12:46:05Z</time>
      </trkpt>
      <trkpt lat="45.96495" lon="6.78635">
        <ele>1772</ele>
        <time>2021-05-22T12:51:44Z</time>
      </trkpt>
      <trkpt lat="45.96491" lon="6.7863">
        <ele>1773</ele>
        <time>2021-05-22T12:56:19Z</time>
      </trkpt>
      <trkpt lat="45.96496" lon="6.78628">
        <ele>1773</ele>
        <time>2021-05-22T12:58:23Z</time>
      </trkpt>
      <trkpt lat="45.96494" lon="6.78631">
        <ele>1773</ele>
        <time>2021-05-22T12:59:52Z</time>
      </trkpt>
      <trkpt lat="45.96489" lon="6.78623">
        <ele>1773</ele>
        <time>2021-05-22T13:01:52Z</time>
      </trkpt>
      <trkpt lat="45.96484" lon="6.78623">
        <ele>1769</ele>
        <time>2021-05-22T13:02:10Z</time>
      </trkpt>
      <trkpt lat="45.96485" lon="6.78623">
        <ele>1762</ele>
        <time>2021-05-22T13:03:18Z</time>
      </trkpt>
      <trkpt lat="45.96488" lon="6.7863">
        <ele>1768</ele>
        <time>2021-05-22T13:03:45Z</time>
      </trkpt>
      <trkpt lat="45.96478" lon="6.78629">
        <ele>1767</ele>
        <time>2021-05-22T13:05:05Z</time>
      </trkpt>
      <trkpt lat="45.96474" lon="6.78624">
        <ele>1766</ele>
        <time>2021-05-22T13:05:33Z</time>
      </trkpt>
      <trkpt lat="45.96473" lon="6.78615">
        <ele>1766</ele>
        <time>2021-05-22T13:05:46Z</time>
      </trkpt>
      <trkpt lat="45.96467" lon="6.78611">
        <ele>1765</ele>
        <time>2021-05-22T13:05:52Z</time>
      </trkpt>
      <trkpt lat="45.96464" lon="6.78603">
        <ele>1764</ele>
        <time>2021-05-22T13:06:04Z</time>
      </trkpt>
      <trkpt lat="45.96461" lon="6.78593">
        <ele>1758</ele>
        <time>2021-05-22T13:07:16Z</time>
      </trkpt>
      <trkpt lat="45.96457" lon="6.78584">
        <ele>1756</ele>
        <time>2021-05-22T13:07:34Z</time>
      </trkpt>
      <trkpt lat="45.96455" lon="6.78577">
        <ele>1752</ele>
        <time>2021-05-22T13:07:58Z</time>
      </trkpt>
      <trkpt lat="45.9645" lon="6.78579">
        <ele>1747</ele>
        <time>2021-05-22T13:08:16Z</time>
      </trkpt>
      <trkpt lat="45.96445" lon="6.78574">
        <ele>1746</ele>
        <time>2021-05-22T13:08:46Z</time>
      </trkpt>
      <trkpt lat="45.96443" lon="6.78561">
        <ele>1742</ele>
        <time>2021-05-22T13:09:16Z</time>
      </trkpt>
      <trkpt lat="45.96437" lon="6.78559">
        <ele>1740</ele>
        <time>2021-05-22T13:09:29Z</time>
      </trkpt>
      <trkpt lat="45.96437" lon="6.78549">
        <ele>1735</ele>
        <time>2021-05-22T13:10:11Z</time>
      </trkpt>
      <trkpt lat="45.96433" lon="6.78544">
        <ele>1736</ele>
        <time>2021-05-22T13:10:29Z</time>
      </trkpt>
      <trkpt lat="45.96425" lon="6.78539">
        <ele>1733</ele>
        <time>2021-05-22T13:10:48Z</time>
      </trkpt>
      <trkpt lat="45.96419" lon="6.78538">
        <ele>1729</ele>
        <time>2021-05-22T13:11:36Z</time>
      </trkpt>
      <trkpt lat="45.96412" lon="6.78537">
        <ele>1728</ele>
        <time>2021-05-22T13:11:48Z</time>
      </trkpt>
      <trkpt lat="45.96407" lon="6.78532">
        <ele>1728</ele>
        <time>2021-05-22T13:11:58Z</time>
      </trkpt>
      <trkpt lat="45.96402" lon="6.78528">
        <ele>1727</ele>
        <time>2021-05-22T13:12:19Z</time>
      </trkpt>
      <trkpt lat="45.96396" lon="6.78517">
        <ele>1727</ele>
        <time>2021-05-22T13:12:35Z</time>
      </trkpt>
      <trkpt lat="45.96393" lon="6.78508">
        <ele>1727</ele>
        <time>2021-05-22T13:12:53Z</time>
      </trkpt>
      <trkpt lat="45.9639" lon="6.78502">
        <ele>1727</ele>
        <time>2021-05-22T13:13:05Z</time>
      </trkpt>
      <trkpt lat="45.96384" lon="6.78501">
        <ele>1727</ele>
        <time>2021-05-22T13:13:17Z</time>
      </trkpt>
      <trkpt lat="45.96378" lon="6.78499">
        <ele>1727</ele>
        <time>2021-05-22T13:13:29Z</time>
      </trkpt>
      <trkpt lat="45.96372" lon="6.78495">
        <ele>1729</ele>
        <time>2021-05-22T13:13:53Z</time>
      </trkpt>
      <trkpt lat="45.96371" lon="6.78486">
        <ele>1728</ele>
        <time>2021-05-22T13:13:59Z</time>
      </trkpt>
      <trkpt lat="45.96369" lon="6.78476">
        <ele>1727</ele>
        <time>2021-05-22T13:14:15Z</time>
      </trkpt>
      <trkpt lat="45.96363" lon="6.78471">
        <ele>1726</ele>
        <time>2021-05-22T13:14:33Z</time>
      </trkpt>
      <trkpt lat="45.96361" lon="6.78463">
        <ele>1724</ele>
        <time>2021-05-22T13:14:51Z</time>
      </trkpt>
      <trkpt lat="45.96352" lon="6.78447">
        <ele>1722</ele>
        <time>2021-05-22T13:15:33Z</time>
      </trkpt>
      <trkpt lat="45.96356" lon="6.78443">
        <ele>1715</ele>
        <time>2021-05-22T13:16:15Z</time>
      </trkpt>
      <trkpt lat="45.96343" lon="6.78425">
        <ele>1705</ele>
        <time>2021-05-22T13:17:11Z</time>
      </trkpt>
      <trkpt lat="45.9634" lon="6.78418">
        <ele>1703</ele>
        <time>2021-05-22T13:17:41Z</time>
      </trkpt>
      <trkpt lat="45.96335" lon="6.78413">
        <ele>1701</ele>
        <time>2021-05-22T13:17:53Z</time>
      </trkpt>
      <trkpt lat="45.96331" lon="6.78407">
        <ele>1700</ele>
        <time>2021-05-22T13:18:06Z</time>
      </trkpt>
      <trkpt lat="45.96327" lon="6.78397">
        <ele>1699</ele>
        <time>2021-05-22T13:18:30Z</time>
      </trkpt>
      <trkpt lat="45.96321" lon="6.7839">
        <ele>1699</ele>
        <time>2021-05-22T13:18:42Z</time>
      </trkpt>
      <trkpt lat="45.96318" lon="6.78384">
        <ele>1697</ele>
        <time>2021-05-22T13:18:59Z</time>
      </trkpt>
      <trkpt lat="45.9631" lon="6.78368">
        <ele>1688</ele>
        <time>2021-05-22T13:19:33Z</time>
      </trkpt>
      <trkpt lat="45.96303" lon="6.78369">
        <ele>1685</ele>
        <time>2021-05-22T13:19:45Z</time>
      </trkpt>
      <trkpt lat="45.96297" lon="6.78369">
        <ele>1684</ele>
        <time>2021-05-22T13:19:52Z</time>
      </trkpt>
      <trkpt lat="45.96292" lon="6.78366">
        <ele>1684</ele>
        <time>2021-05-22T13:19:58Z</time>
      </trkpt>
      <trkpt lat="45.96286" lon="6.78366">
        <ele>1683</ele>
        <time>2021-05-22T13:20:04Z</time>
      </trkpt>
      <trkpt lat="45.96269" lon="6.7837">
        <ele>1679</ele>
        <time>2021-05-22T13:21:58Z</time>
      </trkpt>
      <trkpt lat="45.96246" lon="6.78356">
        <ele>1674</ele>
        <time>2021-05-22T13:22:31Z</time>
      </trkpt>
      <trkpt lat="45.9623" lon="6.78337">
        <ele>1676</ele>
        <time>2021-05-22T13:22:51Z</time>
      </trkpt>
      <trkpt lat="45.96216" lon="6.7833">
        <ele>1675</ele>
        <time>2021-05-22T13:23:06Z</time>
      </trkpt>
      <trkpt lat="45.9618" lon="6.78309">
        <ele>1668</ele>
        <time>2021-05-22T13:23:53Z</time>
      </trkpt>
      <trkpt lat="45.96177" lon="6.78302">
        <ele>1666</ele>
        <time>2021-05-22T13:24:05Z</time>
      </trkpt>
      <trkpt lat="45.96167" lon="6.78295">
        <ele>1667</ele>
        <time>2021-05-22T13:24:24Z</time>
      </trkpt>
      <trkpt lat="45.96161" lon="6.78297">
        <ele>1666</ele>
        <time>2021-05-22T13:24:51Z</time>
      </trkpt>
      <trkpt lat="45.96158" lon="6.78289">
        <ele>1663</ele>
        <time>2021-05-22T13:25:09Z</time>
      </trkpt>
      <trkpt lat="45.96153" lon="6.78277">
        <ele>1660</ele>
        <time>2021-05-22T13:25:26Z</time>
      </trkpt>
      <trkpt lat="45.96151" lon="6.7827">
        <ele>1655</ele>
        <time>2021-05-22T13:26:19Z</time>
      </trkpt>
      <trkpt lat="45.96152" lon="6.78256">
        <ele>1650</ele>
        <time>2021-05-22T13:26:36Z</time>
      </trkpt>
      <trkpt lat="45.96156" lon="6.7825">
        <ele>1649</ele>
        <time>2021-05-22T13:26:42Z</time>
      </trkpt>
      <trkpt lat="45.96151" lon="6.78248">
        <ele>1646</ele>
        <time>2021-05-22T13:26:54Z</time>
      </trkpt>
      <trkpt lat="45.96148" lon="6.78251">
        <ele>1646</ele>
        <time>2021-05-22T13:26:56Z</time>
      </trkpt>
      <trkpt lat="45.96144" lon="6.78252">
        <ele>1646</ele>
        <time>2021-05-22T13:27:00Z</time>
      </trkpt>
      <trkpt lat="45.96139" lon="6.78256">
        <ele>1644</ele>
        <time>2021-05-22T13:27:05Z</time>
      </trkpt>
      <trkpt lat="45.96134" lon="6.78258">
        <ele>1640</ele>
        <time>2021-05-22T13:27:36Z</time>
      </trkpt>
      <trkpt lat="45.96131" lon="6.78252">
        <ele>1634</ele>
        <time>2021-05-22T13:28:01Z</time>
      </trkpt>
      <trkpt lat="45.96125" lon="6.78249">
        <ele>1630</ele>
        <time>2021-05-22T13:28:19Z</time>
      </trkpt>
      <trkpt lat="45.96132" lon="6.78243">
        <ele>1627</ele>
        <time>2021-05-22T13:28:32Z</time>
      </trkpt>
      <trkpt lat="45.96129" lon="6.78237">
        <ele>1623</ele>
        <time>2021-05-22T13:28:47Z</time>
      </trkpt>
      <trkpt lat="45.96126" lon="6.78217">
        <ele>1615</ele>
        <time>2021-05-22T13:29:21Z</time>
      </trkpt>
      <trkpt lat="45.96127" lon="6.78207">
        <ele>1610</ele>
        <time>2021-05-22T13:29:39Z</time>
      </trkpt>
      <trkpt lat="45.96123" lon="6.78198">
        <ele>1607</ele>
        <time>2021-05-22T13:29:51Z</time>
      </trkpt>
      <trkpt lat="45.96124" lon="6.78188">
        <ele>1603</ele>
        <time>2021-05-22T13:30:09Z</time>
      </trkpt>
      <trkpt lat="45.96112" lon="6.78195">
        <ele>1600</ele>
        <time>2021-05-22T13:30:21Z</time>
      </trkpt>
      <trkpt lat="45.96108" lon="6.78186">
        <ele>1596</ele>
        <time>2021-05-22T13:30:37Z</time>
      </trkpt>
      <trkpt lat="45.96109" lon="6.7818">
        <ele>1594</ele>
        <time>2021-05-22T13:30:49Z</time>
      </trkpt>
      <trkpt lat="45.96113" lon="6.78172">
        <ele>1592</ele>
        <time>2021-05-22T13:31:01Z</time>
      </trkpt>
      <trkpt lat="45.96098" lon="6.78162">
        <ele>1583</ele>
        <time>2021-05-22T13:31:38Z</time>
      </trkpt>
      <trkpt lat="45.96095" lon="6.78154">
        <ele>1581</ele>
        <time>2021-05-22T13:31:50Z</time>
      </trkpt>
      <trkpt lat="45.961" lon="6.78146">
        <ele>1578</ele>
        <time>2021-05-22T13:32:13Z</time>
      </trkpt>
      <trkpt lat="45.96104" lon="6.78141">
        <ele>1577</ele>
        <time>2021-05-22T13:32:21Z</time>
      </trkpt>
      <trkpt lat="45.96108" lon="6.78134">
        <ele>1577</ele>
        <time>2021-05-22T13:32:26Z</time>
      </trkpt>
      <trkpt lat="45.96109" lon="6.78126">
        <ele>1574</ele>
        <time>2021-05-22T13:32:34Z</time>
      </trkpt>
      <trkpt lat="45.96103" lon="6.78113">
        <ele>1569</ele>
        <time>2021-05-22T13:32:47Z</time>
      </trkpt>
      <trkpt lat="45.96097" lon="6.7811">
        <ele>1569</ele>
        <time>2021-05-22T13:32:52Z</time>
      </trkpt>
      <trkpt lat="45.96092" lon="6.78095">
        <ele>1568</ele>
        <time>2021-05-22T13:33:05Z</time>
      </trkpt>
      <trkpt lat="45.96092" lon="6.78087">
        <ele>1567</ele>
        <time>2021-05-22T13:33:10Z</time>
      </trkpt>
      <trkpt lat="45.96094" lon="6.78079">
        <ele>1566</ele>
        <time>2021-05-22T13:33:22Z</time>
      </trkpt>
      <trkpt lat="45.96095" lon="6.78071">
        <ele>1565</ele>
        <time>2021-05-22T13:33:38Z</time>
      </trkpt>
      <trkpt lat="45.96088" lon="6.78066">
        <ele>1563</ele>
        <time>2021-05-22T13:34:05Z</time>
      </trkpt>
      <trkpt lat="45.96082" lon="6.78065">
        <ele>1560</ele>
        <time>2021-05-22T13:34:17Z</time>
      </trkpt>
      <trkpt lat="45.96076" lon="6.78057">
        <ele>1560</ele>
        <time>2021-05-22T13:34:35Z</time>
      </trkpt>
      <trkpt lat="45.96079" lon="6.7805">
        <ele>1561</ele>
        <time>2021-05-22T13:35:38Z</time>
      </trkpt>
      <trkpt lat="45.96072" lon="6.78048">
        <ele>1556</ele>
        <time>2021-05-22T13:35:56Z</time>
      </trkpt>
      <trkpt lat="45.96076" lon="6.78044">
        <ele>1558</ele>
        <time>2021-05-22T13:37:02Z</time>
      </trkpt>
      <trkpt lat="45.9608" lon="6.78044">
        <ele>1558</ele>
        <time>2021-05-22T13:38:15Z</time>
      </trkpt>
      <trkpt lat="45.96079" lon="6.78043">
        <ele>1558</ele>
        <time>2021-05-22T13:38:52Z</time>
      </trkpt>
      <trkpt lat="45.96077" lon="6.78035">
        <ele>1559</ele>
        <time>2021-05-22T13:39:22Z</time>
      </trkpt>
      <trkpt lat="45.96075" lon="6.78035">
        <ele>1559</ele>
        <time>2021-05-22T13:40:58Z</time>
      </trkpt>
      <trkpt lat="45.96069" lon="6.78028">
        <ele>1560</ele>
        <time>2021-05-22T13:41:28Z</time>
      </trkpt>
      <trkpt lat="45.96071" lon="6.78033">
        <ele>1559</ele>
        <time>2021-05-22T13:41:47Z</time>
      </trkpt>
      <trkpt lat="45.96074" lon="6.78039">
        <ele>1560</ele>
        <time>2021-05-22T13:41:53Z</time>
      </trkpt>
      <trkpt lat="45.96077" lon="6.78042">
        <ele>1559</ele>
        <time>2021-05-22T13:41:57Z</time>
      </trkpt>
      <trkpt lat="45.96073" lon="6.78036">
        <ele>1559</ele>
        <time>2021-05-22T13:42:58Z</time>
      </trkpt>
      <trkpt lat="45.96075" lon="6.78034">
        <ele>1558</ele>
        <time>2021-05-22T13:43:48Z</time>
      </trkpt>
      <trkpt lat="45.96083" lon="6.78026">
        <ele>1561</ele>
        <time>2021-05-22T13:46:53Z</time>
      </trkpt>
      <trkpt lat="45.96089" lon="6.78016">
        <ele>1563</ele>
        <time>2021-05-22T13:47:11Z</time>
      </trkpt>
      <trkpt lat="45.96093" lon="6.7801">
        <ele>1564</ele>
        <time>2021-05-22T13:47:16Z</time>
      </trkpt>
      <trkpt lat="45.96089" lon="6.78004">
        <ele>1565</ele>
        <time>2021-05-22T13:47:24Z</time>
      </trkpt>
      <trkpt lat="45.9609" lon="6.77993">
        <ele>1566</ele>
        <time>2021-05-22T13:47:31Z</time>
      </trkpt>
      <trkpt lat="45.96093" lon="6.77988">
        <ele>1566</ele>
        <time>2021-05-22T13:47:38Z</time>
      </trkpt>
      <trkpt lat="45.96094" lon="6.77979">
        <ele>1566</ele>
        <time>2021-05-22T13:47:45Z</time>
      </trkpt>
      <trkpt lat="45.9609" lon="6.7797">
        <ele>1565</ele>
        <time>2021-05-22T13:47:56Z</time>
      </trkpt>
      <trkpt lat="45.96085" lon="6.77965">
        <ele>1566</ele>
        <time>2021-05-22T13:48:07Z</time>
      </trkpt>
      <trkpt lat="45.96083" lon="6.77949">
        <ele>1566</ele>
        <time>2021-05-22T13:48:15Z</time>
      </trkpt>
      <trkpt lat="45.96078" lon="6.77943">
        <ele>1565</ele>
        <time>2021-05-22T13:48:19Z</time>
      </trkpt>
      <trkpt lat="45.96067" lon="6.77934">
        <ele>1567</ele>
        <time>2021-05-22T13:48:32Z</time>
      </trkpt>
      <trkpt lat="45.96062" lon="6.77932">
        <ele>1567</ele>
        <time>2021-05-22T13:48:37Z</time>
      </trkpt>
      <trkpt lat="45.96055" lon="6.77924">
        <ele>1567</ele>
        <time>2021-05-22T13:48:46Z</time>
      </trkpt>
      <trkpt lat="45.96043" lon="6.77916">
        <ele>1568</ele>
        <time>2021-05-22T13:48:59Z</time>
      </trkpt>
      <trkpt lat="45.96037" lon="6.77916">
        <ele>1568</ele>
        <time>2021-05-22T13:49:05Z</time>
      </trkpt>
      <trkpt lat="45.96032" lon="6.77914">
        <ele>1569</ele>
        <time>2021-05-22T13:49:11Z</time>
      </trkpt>
      <trkpt lat="45.96024" lon="6.77905">
        <ele>1569</ele>
        <time>2021-05-22T13:49:22Z</time>
      </trkpt>
      <trkpt lat="45.96022" lon="6.779">
        <ele>1569</ele>
        <time>2021-05-22T13:49:26Z</time>
      </trkpt>
      <trkpt lat="45.96018" lon="6.77895">
        <ele>1569</ele>
        <time>2021-05-22T13:49:30Z</time>
      </trkpt>
      <trkpt lat="45.96013" lon="6.77891">
        <ele>1570</ele>
        <time>2021-05-22T13:49:37Z</time>
      </trkpt>
      <trkpt lat="45.96008" lon="6.7789">
        <ele>1569</ele>
        <time>2021-05-22T13:49:40Z</time>
      </trkpt>
      <trkpt lat="45.95992" lon="6.77881">
        <ele>1573</ele>
        <time>2021-05-22T13:50:02Z</time>
      </trkpt>
      <trkpt lat="45.95988" lon="6.77881">
        <ele>1574</ele>
        <time>2021-05-22T13:50:07Z</time>
      </trkpt>
      <trkpt lat="45.9598" lon="6.7789">
        <ele>1575</ele>
        <time>2021-05-22T13:50:20Z</time>
      </trkpt>
      <trkpt lat="45.95976" lon="6.77882">
        <ele>1573</ele>
        <time>2021-05-22T13:50:56Z</time>
      </trkpt>
      <trkpt lat="45.95969" lon="6.77884">
        <ele>1572</ele>
        <time>2021-05-22T13:51:03Z</time>
      </trkpt>
      <trkpt lat="45.95957" lon="6.77878">
        <ele>1571</ele>
        <time>2021-05-22T13:51:12Z</time>
      </trkpt>
      <trkpt lat="45.95945" lon="6.77875">
        <ele>1570</ele>
        <time>2021-05-22T13:51:21Z</time>
      </trkpt>
      <trkpt lat="45.95939" lon="6.77875">
        <ele>1571</ele>
        <time>2021-05-22T13:51:26Z</time>
      </trkpt>
      <trkpt lat="45.95933" lon="6.77872">
        <ele>1570</ele>
        <time>2021-05-22T13:51:31Z</time>
      </trkpt>
      <trkpt lat="45.95925" lon="6.77872">
        <ele>1570</ele>
        <time>2021-05-22T13:51:40Z</time>
      </trkpt>
      <trkpt lat="45.95913" lon="6.77869">
        <ele>1570</ele>
        <time>2021-05-22T13:51:50Z</time>
      </trkpt>
      <trkpt lat="45.95907" lon="6.77868">
        <ele>1570</ele>
        <time>2021-05-22T13:51:56Z</time>
      </trkpt>
      <trkpt lat="45.95901" lon="6.77865">
        <ele>1568</ele>
        <time>2021-05-22T13:52:03Z</time>
      </trkpt>
      <trkpt lat="45.95894" lon="6.77862">
        <ele>1568</ele>
        <time>2021-05-22T13:52:08Z</time>
      </trkpt>
      <trkpt lat="45.95891" lon="6.77857">
        <ele>1566</ele>
        <time>2021-05-22T13:52:13Z</time>
      </trkpt>
      <trkpt lat="45.9589" lon="6.77847">
        <ele>1565</ele>
        <time>2021-05-22T13:52:19Z</time>
      </trkpt>
      <trkpt lat="45.95897" lon="6.77823">
        <ele>1561</ele>
        <time>2021-05-22T13:52:34Z</time>
      </trkpt>
      <trkpt lat="45.95902" lon="6.77815">
        <ele>1559</ele>
        <time>2021-05-22T13:52:42Z</time>
      </trkpt>
      <trkpt lat="45.95898" lon="6.77805">
        <ele>1557</ele>
        <time>2021-05-22T13:52:50Z</time>
      </trkpt>
      <trkpt lat="45.95894" lon="6.77799">
        <ele>1556</ele>
        <time>2021-05-22T13:52:54Z</time>
      </trkpt>
      <trkpt lat="45.95888" lon="6.77797">
        <ele>1556</ele>
        <time>2021-05-22T13:52:58Z</time>
      </trkpt>
      <trkpt lat="45.95882" lon="6.77797">
        <ele>1555</ele>
        <time>2021-05-22T13:53:03Z</time>
      </trkpt>
      <trkpt lat="45.95877" lon="6.77793">
        <ele>1555</ele>
        <time>2021-05-22T13:53:08Z</time>
      </trkpt>
      <trkpt lat="45.95875" lon="6.77785">
        <ele>1554</ele>
        <time>2021-05-22T13:53:13Z</time>
      </trkpt>
      <trkpt lat="45.95861" lon="6.7777">
        <ele>1552</ele>
        <time>2021-05-22T13:53:29Z</time>
      </trkpt>
      <trkpt lat="45.95859" lon="6.77761">
        <ele>1552</ele>
        <time>2021-05-22T13:53:34Z</time>
      </trkpt>
      <trkpt lat="45.95859" lon="6.77752">
        <ele>1550</ele>
        <time>2021-05-22T13:53:40Z</time>
      </trkpt>
      <trkpt lat="45.9586" lon="6.77743">
        <ele>1548</ele>
        <time>2021-05-22T13:53:45Z</time>
      </trkpt>
      <trkpt lat="45.95862" lon="6.77734">
        <ele>1548</ele>
        <time>2021-05-22T13:53:50Z</time>
      </trkpt>
      <trkpt lat="45.95861" lon="6.77717">
        <ele>1547</ele>
        <time>2021-05-22T13:53:59Z</time>
      </trkpt>
      <trkpt lat="45.95864" lon="6.77693">
        <ele>1544</ele>
        <time>2021-05-22T13:54:13Z</time>
      </trkpt>
      <trkpt lat="45.95869" lon="6.77684">
        <ele>1542</ele>
        <time>2021-05-22T13:54:21Z</time>
      </trkpt>
      <trkpt lat="45.95867" lon="6.77673">
        <ele>1540</ele>
        <time>2021-05-22T13:54:29Z</time>
      </trkpt>
      <trkpt lat="45.95862" lon="6.7767">
        <ele>1539</ele>
        <time>2021-05-22T13:54:32Z</time>
      </trkpt>
      <trkpt lat="45.95856" lon="6.77667">
        <ele>1539</ele>
        <time>2021-05-22T13:54:36Z</time>
      </trkpt>
      <trkpt lat="45.9585" lon="6.77669">
        <ele>1538</ele>
        <time>2021-05-22T13:54:41Z</time>
      </trkpt>
      <trkpt lat="45.95845" lon="6.77672">
        <ele>1537</ele>
        <time>2021-05-22T13:54:45Z</time>
      </trkpt>
      <trkpt lat="45.95838" lon="6.77683">
        <ele>1535</ele>
        <time>2021-05-22T13:54:54Z</time>
      </trkpt>
      <trkpt lat="45.95829" lon="6.77689">
        <ele>1533</ele>
        <time>2021-05-22T13:55:00Z</time>
      </trkpt>
      <trkpt lat="45.95825" lon="6.77691">
        <ele>1532</ele>
        <time>2021-05-22T13:55:04Z</time>
      </trkpt>
      <trkpt lat="45.95819" lon="6.77694">
        <ele>1532</ele>
        <time>2021-05-22T13:55:09Z</time>
      </trkpt>
      <trkpt lat="45.95809" lon="6.77695">
        <ele>1530</ele>
        <time>2021-05-22T13:55:22Z</time>
      </trkpt>
      <trkpt lat="45.95803" lon="6.77689">
        <ele>1527</ele>
        <time>2021-05-22T13:55:43Z</time>
      </trkpt>
      <trkpt lat="45.95802" lon="6.7768">
        <ele>1527</ele>
        <time>2021-05-22T13:55:47Z</time>
      </trkpt>
      <trkpt lat="45.95803" lon="6.77671">
        <ele>1525</ele>
        <time>2021-05-22T13:55:51Z</time>
      </trkpt>
      <trkpt lat="45.95807" lon="6.77665">
        <ele>1524</ele>
        <time>2021-05-22T13:55:57Z</time>
      </trkpt>
      <trkpt lat="45.95807" lon="6.77657">
        <ele>1523</ele>
        <time>2021-05-22T13:56:03Z</time>
      </trkpt>
      <trkpt lat="45.95802" lon="6.77655">
        <ele>1523</ele>
        <time>2021-05-22T13:56:06Z</time>
      </trkpt>
      <trkpt lat="45.95788" lon="6.77649">
        <ele>1520</ele>
        <time>2021-05-22T13:56:19Z</time>
      </trkpt>
      <trkpt lat="45.95785" lon="6.77641">
        <ele>1519</ele>
        <time>2021-05-22T13:56:24Z</time>
      </trkpt>
      <trkpt lat="45.95785" lon="6.77625">
        <ele>1517</ele>
        <time>2021-05-22T13:56:33Z</time>
      </trkpt>
      <trkpt lat="45.95786" lon="6.77613">
        <ele>1515</ele>
        <time>2021-05-22T13:56:38Z</time>
      </trkpt>
      <trkpt lat="45.95787" lon="6.77606">
        <ele>1515</ele>
        <time>2021-05-22T13:56:43Z</time>
      </trkpt>
      <trkpt lat="45.95791" lon="6.77599">
        <ele>1514</ele>
        <time>2021-05-22T13:56:48Z</time>
      </trkpt>
      <trkpt lat="45.95793" lon="6.77587">
        <ele>1513</ele>
        <time>2021-05-22T13:56:57Z</time>
      </trkpt>
      <trkpt lat="45.95797" lon="6.7758">
        <ele>1513</ele>
        <time>2021-05-22T13:57:02Z</time>
      </trkpt>
      <trkpt lat="45.95796" lon="6.77556">
        <ele>1511</ele>
        <time>2021-05-22T13:57:20Z</time>
      </trkpt>
      <trkpt lat="45.95797" lon="6.77548">
        <ele>1511</ele>
        <time>2021-05-22T13:57:24Z</time>
      </trkpt>
      <trkpt lat="45.958" lon="6.7754">
        <ele>1511</ele>
        <time>2021-05-22T13:57:29Z</time>
      </trkpt>
      <trkpt lat="45.95803" lon="6.77524">
        <ele>1510</ele>
        <time>2021-05-22T13:57:40Z</time>
      </trkpt>
      <trkpt lat="45.95792" lon="6.77513">
        <ele>1509</ele>
        <time>2021-05-22T13:57:46Z</time>
      </trkpt>
      <trkpt lat="45.95789" lon="6.77507">
        <ele>1509</ele>
        <time>2021-05-22T13:57:50Z</time>
      </trkpt>
      <trkpt lat="45.95784" lon="6.775">
        <ele>1509</ele>
        <time>2021-05-22T13:57:54Z</time>
      </trkpt>
      <trkpt lat="45.9578" lon="6.77495">
        <ele>1509</ele>
        <time>2021-05-22T13:57:57Z</time>
      </trkpt>
      <trkpt lat="45.95776" lon="6.7748">
        <ele>1508</ele>
        <time>2021-05-22T13:58:04Z</time>
      </trkpt>
      <trkpt lat="45.95774" lon="6.77472">
        <ele>1508</ele>
        <time>2021-05-22T13:58:08Z</time>
      </trkpt>
      <trkpt lat="45.95771" lon="6.77463">
        <ele>1508</ele>
        <time>2021-05-22T13:58:14Z</time>
      </trkpt>
      <trkpt lat="45.95766" lon="6.77458">
        <ele>1508</ele>
        <time>2021-05-22T13:58:20Z</time>
      </trkpt>
      <trkpt lat="45.95762" lon="6.77452">
        <ele>1507</ele>
        <time>2021-05-22T13:58:24Z</time>
      </trkpt>
      <trkpt lat="45.95757" lon="6.77445">
        <ele>1506</ele>
        <time>2021-05-22T13:58:29Z</time>
      </trkpt>
      <trkpt lat="45.95754" lon="6.77438">
        <ele>1507</ele>
        <time>2021-05-22T13:58:32Z</time>
      </trkpt>
      <trkpt lat="45.95751" lon="6.77434">
        <ele>1506</ele>
        <time>2021-05-22T13:58:35Z</time>
      </trkpt>
      <trkpt lat="45.95744" lon="6.77431">
        <ele>1506</ele>
        <time>2021-05-22T13:58:41Z</time>
      </trkpt>
      <trkpt lat="45.95739" lon="6.77429">
        <ele>1506</ele>
        <time>2021-05-22T13:58:46Z</time>
      </trkpt>
      <trkpt lat="45.95727" lon="6.77419">
        <ele>1503</ele>
        <time>2021-05-22T13:59:03Z</time>
      </trkpt>
      <trkpt lat="45.95722" lon="6.77415">
        <ele>1501</ele>
        <time>2021-05-22T13:59:13Z</time>
      </trkpt>
      <trkpt lat="45.95712" lon="6.77414">
        <ele>1499</ele>
        <time>2021-05-22T13:59:24Z</time>
      </trkpt>
      <trkpt lat="45.95706" lon="6.77417">
        <ele>1499</ele>
        <time>2021-05-22T13:59:28Z</time>
      </trkpt>
      <trkpt lat="45.95702" lon="6.77423">
        <ele>1499</ele>
        <time>2021-05-22T13:59:32Z</time>
      </trkpt>
      <trkpt lat="45.95697" lon="6.77426">
        <ele>1498</ele>
        <time>2021-05-22T13:59:37Z</time>
      </trkpt>
      <trkpt lat="45.9569" lon="6.77426">
        <ele>1497</ele>
        <time>2021-05-22T13:59:43Z</time>
      </trkpt>
      <trkpt lat="45.95684" lon="6.77421">
        <ele>1495</ele>
        <time>2021-05-22T13:59:48Z</time>
      </trkpt>
      <trkpt lat="45.95675" lon="6.77411">
        <ele>1493</ele>
        <time>2021-05-22T13:59:58Z</time>
      </trkpt>
      <trkpt lat="45.95671" lon="6.77407">
        <ele>1493</ele>
        <time>2021-05-22T14:00:03Z</time>
      </trkpt>
      <trkpt lat="45.95662" lon="6.77408">
        <ele>1492</ele>
        <time>2021-05-22T14:00:16Z</time>
      </trkpt>
      <trkpt lat="45.95655" lon="6.77406">
        <ele>1491</ele>
        <time>2021-05-22T14:00:23Z</time>
      </trkpt>
      <trkpt lat="45.95646" lon="6.77399">
        <ele>1488</ele>
        <time>2021-05-22T14:00:34Z</time>
      </trkpt>
      <trkpt lat="45.95643" lon="6.77387">
        <ele>1487</ele>
        <time>2021-05-22T14:00:41Z</time>
      </trkpt>
      <trkpt lat="45.95642" lon="6.77369">
        <ele>1485</ele>
        <time>2021-05-22T14:00:51Z</time>
      </trkpt>
      <trkpt lat="45.95644" lon="6.77359">
        <ele>1483</ele>
        <time>2021-05-22T14:00:58Z</time>
      </trkpt>
      <trkpt lat="45.95644" lon="6.7734">
        <ele>1480</ele>
        <time>2021-05-22T14:01:12Z</time>
      </trkpt>
      <trkpt lat="45.95638" lon="6.7733">
        <ele>1480</ele>
        <time>2021-05-22T14:01:24Z</time>
      </trkpt>
      <trkpt lat="45.95632" lon="6.77317">
        <ele>1477</ele>
        <time>2021-05-22T14:01:33Z</time>
      </trkpt>
      <trkpt lat="45.95634" lon="6.77301">
        <ele>1475</ele>
        <time>2021-05-22T14:01:41Z</time>
      </trkpt>
      <trkpt lat="45.95628" lon="6.77285">
        <ele>1473</ele>
        <time>2021-05-22T14:01:54Z</time>
      </trkpt>
      <trkpt lat="45.95627" lon="6.77268">
        <ele>1472</ele>
        <time>2021-05-22T14:02:05Z</time>
      </trkpt>
      <trkpt lat="45.95624" lon="6.77258">
        <ele>1471</ele>
        <time>2021-05-22T14:02:13Z</time>
      </trkpt>
      <trkpt lat="45.95627" lon="6.77248">
        <ele>1471</ele>
        <time>2021-05-22T14:02:21Z</time>
      </trkpt>
      <trkpt lat="45.95624" lon="6.7724">
        <ele>1471</ele>
        <time>2021-05-22T14:02:25Z</time>
      </trkpt>
      <trkpt lat="45.95622" lon="6.77231">
        <ele>1470</ele>
        <time>2021-05-22T14:02:30Z</time>
      </trkpt>
      <trkpt lat="45.95615" lon="6.77219">
        <ele>1468</ele>
        <time>2021-05-22T14:02:39Z</time>
      </trkpt>
      <trkpt lat="45.95614" lon="6.77211">
        <ele>1468</ele>
        <time>2021-05-22T14:02:43Z</time>
      </trkpt>
      <trkpt lat="45.95605" lon="6.77169">
        <ele>1465</ele>
        <time>2021-05-22T14:03:09Z</time>
      </trkpt>
      <trkpt lat="45.95601" lon="6.7716">
        <ele>1463</ele>
        <time>2021-05-22T14:03:16Z</time>
      </trkpt>
      <trkpt lat="45.95596" lon="6.77157">
        <ele>1463</ele>
        <time>2021-05-22T14:03:21Z</time>
      </trkpt>
      <trkpt lat="45.95588" lon="6.77157">
        <ele>1461</ele>
        <time>2021-05-22T14:03:28Z</time>
      </trkpt>
      <trkpt lat="45.95583" lon="6.77153">
        <ele>1461</ele>
        <time>2021-05-22T14:03:33Z</time>
      </trkpt>
      <trkpt lat="45.95568" lon="6.77133">
        <ele>1458</ele>
        <time>2021-05-22T14:03:54Z</time>
      </trkpt>
      <trkpt lat="45.95556" lon="6.77129">
        <ele>1457</ele>
        <time>2021-05-22T14:04:03Z</time>
      </trkpt>
      <trkpt lat="45.95547" lon="6.77119">
        <ele>1454</ele>
        <time>2021-05-22T14:04:15Z</time>
      </trkpt>
      <trkpt lat="45.95544" lon="6.77105">
        <ele>1452</ele>
        <time>2021-05-22T14:04:25Z</time>
      </trkpt>
      <trkpt lat="45.95534" lon="6.77094">
        <ele>1450</ele>
        <time>2021-05-22T14:04:38Z</time>
      </trkpt>
      <trkpt lat="45.9552" lon="6.77067">
        <ele>1444</ele>
        <time>2021-05-22T14:05:02Z</time>
      </trkpt>
      <trkpt lat="45.95503" lon="6.77058">
        <ele>1442</ele>
        <time>2021-05-22T14:05:15Z</time>
      </trkpt>
      <trkpt lat="45.9549" lon="6.77057">
        <ele>1440</ele>
        <time>2021-05-22T14:05:26Z</time>
      </trkpt>
      <trkpt lat="45.9548" lon="6.77052">
        <ele>1438</ele>
        <time>2021-05-22T14:05:38Z</time>
      </trkpt>
      <trkpt lat="45.95474" lon="6.7705">
        <ele>1437</ele>
        <time>2021-05-22T14:05:43Z</time>
      </trkpt>
      <trkpt lat="45.95462" lon="6.77045">
        <ele>1434</ele>
        <time>2021-05-22T14:05:53Z</time>
      </trkpt>
      <trkpt lat="45.95443" lon="6.77047">
        <ele>1431</ele>
        <time>2021-05-22T14:06:09Z</time>
      </trkpt>
      <trkpt lat="45.95437" lon="6.77047">
        <ele>1431</ele>
        <time>2021-05-22T14:06:14Z</time>
      </trkpt>
      <trkpt lat="45.95425" lon="6.7704">
        <ele>1429</ele>
        <time>2021-05-22T14:06:28Z</time>
      </trkpt>
      <trkpt lat="45.95418" lon="6.7704">
        <ele>1428</ele>
        <time>2021-05-22T14:06:33Z</time>
      </trkpt>
      <trkpt lat="45.95412" lon="6.77037">
        <ele>1428</ele>
        <time>2021-05-22T14:06:38Z</time>
      </trkpt>
      <trkpt lat="45.95408" lon="6.77035">
        <ele>1426</ele>
        <time>2021-05-22T14:06:43Z</time>
      </trkpt>
      <trkpt lat="45.95405" lon="6.7702">
        <ele>1423</ele>
        <time>2021-05-22T14:06:53Z</time>
      </trkpt>
      <trkpt lat="45.95401" lon="6.7701">
        <ele>1422</ele>
        <time>2021-05-22T14:06:58Z</time>
      </trkpt>
      <trkpt lat="45.95392" lon="6.7698">
        <ele>1420</ele>
        <time>2021-05-22T14:07:15Z</time>
      </trkpt>
      <trkpt lat="45.95387" lon="6.7697">
        <ele>1421</ele>
        <time>2021-05-22T14:07:22Z</time>
      </trkpt>
      <trkpt lat="45.95383" lon="6.7696">
        <ele>1420</ele>
        <time>2021-05-22T14:07:29Z</time>
      </trkpt>
      <trkpt lat="45.95382" lon="6.7695">
        <ele>1421</ele>
        <time>2021-05-22T14:07:34Z</time>
      </trkpt>
      <trkpt lat="45.95382" lon="6.76938">
        <ele>1420</ele>
        <time>2021-05-22T14:07:40Z</time>
      </trkpt>
      <trkpt lat="45.95379" lon="6.76928">
        <ele>1419</ele>
        <time>2021-05-22T14:07:46Z</time>
      </trkpt>
      <trkpt lat="45.9538" lon="6.76919">
        <ele>1419</ele>
        <time>2021-05-22T14:07:49Z</time>
      </trkpt>
      <trkpt lat="45.9538" lon="6.76908">
        <ele>1418</ele>
        <time>2021-05-22T14:07:55Z</time>
      </trkpt>
      <trkpt lat="45.95369" lon="6.7689">
        <ele>1415</ele>
        <time>2021-05-22T14:08:10Z</time>
      </trkpt>
      <trkpt lat="45.95365" lon="6.76868">
        <ele>1415</ele>
        <time>2021-05-22T14:08:24Z</time>
      </trkpt>
      <trkpt lat="45.95366" lon="6.76856">
        <ele>1414</ele>
        <time>2021-05-22T14:08:31Z</time>
      </trkpt>
      <trkpt lat="45.95349" lon="6.76821">
        <ele>1411</ele>
        <time>2021-05-22T14:08:54Z</time>
      </trkpt>
      <trkpt lat="45.95338" lon="6.76807">
        <ele>1411</ele>
        <time>2021-05-22T14:09:07Z</time>
      </trkpt>
      <trkpt lat="45.95331" lon="6.76787">
        <ele>1411</ele>
        <time>2021-05-22T14:09:18Z</time>
      </trkpt>
      <trkpt lat="45.9533" lon="6.76771">
        <ele>1411</ele>
        <time>2021-05-22T14:09:24Z</time>
      </trkpt>
      <trkpt lat="45.95327" lon="6.76766">
        <ele>1411</ele>
        <time>2021-05-22T14:09:28Z</time>
      </trkpt>
      <trkpt lat="45.9532" lon="6.76746">
        <ele>1411</ele>
        <time>2021-05-22T14:09:42Z</time>
      </trkpt>
      <trkpt lat="45.95314" lon="6.76741">
        <ele>1411</ele>
        <time>2021-05-22T14:09:48Z</time>
      </trkpt>
      <trkpt lat="45.95307" lon="6.76738">
        <ele>1412</ele>
        <time>2021-05-22T14:09:54Z</time>
      </trkpt>
      <trkpt lat="45.95301" lon="6.76736">
        <ele>1411</ele>
        <time>2021-05-22T14:09:59Z</time>
      </trkpt>
      <trkpt lat="45.95289" lon="6.76721">
        <ele>1412</ele>
        <time>2021-05-22T14:10:14Z</time>
      </trkpt>
      <trkpt lat="45.95285" lon="6.76714">
        <ele>1412</ele>
        <time>2021-05-22T14:10:20Z</time>
      </trkpt>
      <trkpt lat="45.95281" lon="6.76706">
        <ele>1413</ele>
        <time>2021-05-22T14:10:26Z</time>
      </trkpt>
      <trkpt lat="45.9528" lon="6.76692">
        <ele>1414</ele>
        <time>2021-05-22T14:10:34Z</time>
      </trkpt>
      <trkpt lat="45.95268" lon="6.76678">
        <ele>1415</ele>
        <time>2021-05-22T14:10:50Z</time>
      </trkpt>
      <trkpt lat="45.95255" lon="6.76647">
        <ele>1416</ele>
        <time>2021-05-22T14:11:11Z</time>
      </trkpt>
      <trkpt lat="45.95248" lon="6.76641">
        <ele>1416</ele>
        <time>2021-05-22T14:11:16Z</time>
      </trkpt>
      <trkpt lat="45.95243" lon="6.7663">
        <ele>1416</ele>
        <time>2021-05-22T14:11:25Z</time>
      </trkpt>
      <trkpt lat="45.95237" lon="6.76623">
        <ele>1416</ele>
        <time>2021-05-22T14:11:32Z</time>
      </trkpt>
      <trkpt lat="45.95232" lon="6.7661">
        <ele>1417</ele>
        <time>2021-05-22T14:11:43Z</time>
      </trkpt>
      <trkpt lat="45.95232" lon="6.766">
        <ele>1417</ele>
        <time>2021-05-22T14:11:51Z</time>
      </trkpt>
      <trkpt lat="45.95225" lon="6.76595">
        <ele>1418</ele>
        <time>2021-05-22T14:11:58Z</time>
      </trkpt>
      <trkpt lat="45.95217" lon="6.76576">
        <ele>1419</ele>
        <time>2021-05-22T14:12:11Z</time>
      </trkpt>
      <trkpt lat="45.95209" lon="6.76565">
        <ele>1420</ele>
        <time>2021-05-22T14:12:27Z</time>
      </trkpt>
      <trkpt lat="45.952" lon="6.76546">
        <ele>1420</ele>
        <time>2021-05-22T14:12:39Z</time>
      </trkpt>
      <trkpt lat="45.95198" lon="6.76538">
        <ele>1421</ele>
        <time>2021-05-22T14:12:43Z</time>
      </trkpt>
      <trkpt lat="45.95195" lon="6.76531">
        <ele>1421</ele>
        <time>2021-05-22T14:12:47Z</time>
      </trkpt>
      <trkpt lat="45.95183" lon="6.76511">
        <ele>1421</ele>
        <time>2021-05-22T14:13:03Z</time>
      </trkpt>
      <trkpt lat="45.95177" lon="6.76507">
        <ele>1421</ele>
        <time>2021-05-22T14:13:09Z</time>
      </trkpt>
      <trkpt lat="45.95172" lon="6.76499">
        <ele>1422</ele>
        <time>2021-05-22T14:13:16Z</time>
      </trkpt>
      <trkpt lat="45.9517" lon="6.76491">
        <ele>1422</ele>
        <time>2021-05-22T14:13:20Z</time>
      </trkpt>
      <trkpt lat="45.9516" lon="6.7647">
        <ele>1422</ele>
        <time>2021-05-22T14:13:37Z</time>
      </trkpt>
      <trkpt lat="45.95154" lon="6.76455">
        <ele>1423</ele>
        <time>2021-05-22T14:13:47Z</time>
      </trkpt>
      <trkpt lat="45.95147" lon="6.76422">
        <ele>1421</ele>
        <time>2021-05-22T14:14:07Z</time>
      </trkpt>
      <trkpt lat="45.95149" lon="6.76414">
        <ele>1420</ele>
        <time>2021-05-22T14:14:12Z</time>
      </trkpt>
      <trkpt lat="45.95142" lon="6.76415">
        <ele>1421</ele>
        <time>2021-05-22T14:14:46Z</time>
      </trkpt>
      <trkpt lat="45.95137" lon="6.76405">
        <ele>1420</ele>
        <time>2021-05-22T14:14:54Z</time>
      </trkpt>
      <trkpt lat="45.95133" lon="6.76399">
        <ele>1420</ele>
        <time>2021-05-22T14:14:59Z</time>
      </trkpt>
      <trkpt lat="45.95128" lon="6.7639">
        <ele>1419</ele>
        <time>2021-05-22T14:15:09Z</time>
      </trkpt>
      <trkpt lat="45.95118" lon="6.7638">
        <ele>1418</ele>
        <time>2021-05-22T14:15:18Z</time>
      </trkpt>
      <trkpt lat="45.95114" lon="6.7637">
        <ele>1417</ele>
        <time>2021-05-22T14:15:24Z</time>
      </trkpt>
      <trkpt lat="45.9511" lon="6.7636">
        <ele>1416</ele>
        <time>2021-05-22T14:15:29Z</time>
      </trkpt>
      <trkpt lat="45.95108" lon="6.76352">
        <ele>1416</ele>
        <time>2021-05-22T14:15:33Z</time>
      </trkpt>
      <trkpt lat="45.95108" lon="6.76344">
        <ele>1415</ele>
        <time>2021-05-22T14:15:36Z</time>
      </trkpt>
      <trkpt lat="45.95104" lon="6.76338">
        <ele>1414</ele>
        <time>2021-05-22T14:15:41Z</time>
      </trkpt>
      <trkpt lat="45.95098" lon="6.76335">
        <ele>1414</ele>
        <time>2021-05-22T14:15:45Z</time>
      </trkpt>
      <trkpt lat="45.95091" lon="6.76322">
        <ele>1411</ele>
        <time>2021-05-22T14:16:00Z</time>
      </trkpt>
      <trkpt lat="45.95089" lon="6.76305">
        <ele>1407</ele>
        <time>2021-05-22T14:16:12Z</time>
      </trkpt>
      <trkpt lat="45.95087" lon="6.76293">
        <ele>1405</ele>
        <time>2021-05-22T14:16:24Z</time>
      </trkpt>
      <trkpt lat="45.9508" lon="6.76265">
        <ele>1401</ele>
        <time>2021-05-22T14:16:39Z</time>
      </trkpt>
      <trkpt lat="45.95077" lon="6.76258">
        <ele>1401</ele>
        <time>2021-05-22T14:16:46Z</time>
      </trkpt>
      <trkpt lat="45.95071" lon="6.7625">
        <ele>1400</ele>
        <time>2021-05-22T14:16:54Z</time>
      </trkpt>
      <trkpt lat="45.95055" lon="6.76247">
        <ele>1397</ele>
        <time>2021-05-22T14:17:05Z</time>
      </trkpt>
      <trkpt lat="45.95051" lon="6.76251">
        <ele>1396</ele>
        <time>2021-05-22T14:17:11Z</time>
      </trkpt>
      <trkpt lat="45.95042" lon="6.76275">
        <ele>1390</ele>
        <time>2021-05-22T14:17:35Z</time>
      </trkpt>
      <trkpt lat="45.95038" lon="6.76281">
        <ele>1387</ele>
        <time>2021-05-22T14:17:41Z</time>
      </trkpt>
      <trkpt lat="45.95033" lon="6.76269">
        <ele>1382</ele>
        <time>2021-05-22T14:18:01Z</time>
      </trkpt>
      <trkpt lat="45.95032" lon="6.76261">
        <ele>1381</ele>
        <time>2021-05-22T14:18:43Z</time>
      </trkpt>
      <trkpt lat="45.95025" lon="6.76257">
        <ele>1382</ele>
        <time>2021-05-22T14:18:50Z</time>
      </trkpt>
      <trkpt lat="45.95029" lon="6.76257">
        <ele>1381</ele>
        <time>2021-05-22T14:20:52Z</time>
      </trkpt>
      <trkpt lat="45.95028" lon="6.76266">
        <ele>1381</ele>
        <time>2021-05-22T14:21:04Z</time>
      </trkpt>
      <trkpt lat="45.95017" lon="6.76232">
        <ele>1378</ele>
        <time>2021-05-22T14:25:25Z</time>
      </trkpt>
      <trkpt lat="45.95007" lon="6.76214">
        <ele>1374</ele>
        <time>2021-05-22T14:25:36Z</time>
      </trkpt>
      <trkpt lat="45.95001" lon="6.76212">
        <ele>1374</ele>
        <time>2021-05-22T14:25:40Z</time>
      </trkpt>
      <trkpt lat="45.94997" lon="6.76206">
        <ele>1374</ele>
        <time>2021-05-22T14:25:44Z</time>
      </trkpt>
      <trkpt lat="45.94991" lon="6.76202">
        <ele>1372</ele>
        <time>2021-05-22T14:25:48Z</time>
      </trkpt>
      <trkpt lat="45.94985" lon="6.762">
        <ele>1371</ele>
        <time>2021-05-22T14:25:53Z</time>
      </trkpt>
      <trkpt lat="45.94979" lon="6.76201">
        <ele>1371</ele>
        <time>2021-05-22T14:25:57Z</time>
      </trkpt>
      <trkpt lat="45.94974" lon="6.76202">
        <ele>1369</ele>
        <time>2021-05-22T14:26:01Z</time>
      </trkpt>
      <trkpt lat="45.94969" lon="6.762">
        <ele>1367</ele>
        <time>2021-05-22T14:26:09Z</time>
      </trkpt>
      <trkpt lat="45.94964" lon="6.7619">
        <ele>1364</ele>
        <time>2021-05-22T14:26:15Z</time>
      </trkpt>
      <trkpt lat="45.9496" lon="6.76184">
        <ele>1365</ele>
        <time>2021-05-22T14:26:19Z</time>
      </trkpt>
      <trkpt lat="45.94957" lon="6.76167">
        <ele>1362</ele>
        <time>2021-05-22T14:26:28Z</time>
      </trkpt>
      <trkpt lat="45.94951" lon="6.76152">
        <ele>1360</ele>
        <time>2021-05-22T14:26:37Z</time>
      </trkpt>
      <trkpt lat="45.94951" lon="6.76143">
        <ele>1360</ele>
        <time>2021-05-22T14:26:42Z</time>
      </trkpt>
      <trkpt lat="45.94954" lon="6.76129">
        <ele>1358</ele>
        <time>2021-05-22T14:26:49Z</time>
      </trkpt>
      <trkpt lat="45.94953" lon="6.76113">
        <ele>1356</ele>
        <time>2021-05-22T14:26:57Z</time>
      </trkpt>
      <trkpt lat="45.9495" lon="6.76104">
        <ele>1354</ele>
        <time>2021-05-22T14:27:02Z</time>
      </trkpt>
      <trkpt lat="45.94949" lon="6.76096">
        <ele>1352</ele>
        <time>2021-05-22T14:27:06Z</time>
      </trkpt>
      <trkpt lat="45.94946" lon="6.76086">
        <ele>1353</ele>
        <time>2021-05-22T14:27:11Z</time>
      </trkpt>
      <trkpt lat="45.94947" lon="6.76078">
        <ele>1350</ele>
        <time>2021-05-22T14:27:19Z</time>
      </trkpt>
      <trkpt lat="45.94952" lon="6.76074">
        <ele>1349</ele>
        <time>2021-05-22T14:27:25Z</time>
      </trkpt>
      <trkpt lat="45.94958" lon="6.76074">
        <ele>1348</ele>
        <time>2021-05-22T14:27:28Z</time>
      </trkpt>
      <trkpt lat="45.94966" lon="6.76065">
        <ele>1345</ele>
        <time>2021-05-22T14:27:36Z</time>
      </trkpt>
      <trkpt lat="45.9497" lon="6.76058">
        <ele>1344</ele>
        <time>2021-05-22T14:27:40Z</time>
      </trkpt>
      <trkpt lat="45.94974" lon="6.7605">
        <ele>1342</ele>
        <time>2021-05-22T14:27:45Z</time>
      </trkpt>
      <trkpt lat="45.94973" lon="6.76041">
        <ele>1341</ele>
        <time>2021-05-22T14:27:49Z</time>
      </trkpt>
      <trkpt lat="45.94966" lon="6.76037">
        <ele>1340</ele>
        <time>2021-05-22T14:27:53Z</time>
      </trkpt>
      <trkpt lat="45.94958" lon="6.76038">
        <ele>1340</ele>
        <time>2021-05-22T14:27:56Z</time>
      </trkpt>
      <trkpt lat="45.94947" lon="6.76033">
        <ele>1336</ele>
        <time>2021-05-22T14:28:07Z</time>
      </trkpt>
      <trkpt lat="45.94942" lon="6.76027">
        <ele>1333</ele>
        <time>2021-05-22T14:28:13Z</time>
      </trkpt>
      <trkpt lat="45.94938" lon="6.76021">
        <ele>1334</ele>
        <time>2021-05-22T14:28:17Z</time>
      </trkpt>
      <trkpt lat="45.94929" lon="6.76006">
        <ele>1331</ele>
        <time>2021-05-22T14:28:27Z</time>
      </trkpt>
      <trkpt lat="45.94934" lon="6.75999">
        <ele>1328</ele>
        <time>2021-05-22T14:28:33Z</time>
      </trkpt>
      <trkpt lat="45.9494" lon="6.75995">
        <ele>1325</ele>
        <time>2021-05-22T14:28:43Z</time>
      </trkpt>
      <trkpt lat="45.94948" lon="6.75992">
        <ele>1324</ele>
        <time>2021-05-22T14:28:47Z</time>
      </trkpt>
      <trkpt lat="45.94953" lon="6.7599">
        <ele>1324</ele>
        <time>2021-05-22T14:28:49Z</time>
      </trkpt>
      <trkpt lat="45.94957" lon="6.75985">
        <ele>1323</ele>
        <time>2021-05-22T14:28:52Z</time>
      </trkpt>
      <trkpt lat="45.94962" lon="6.7598">
        <ele>1323</ele>
        <time>2021-05-22T14:28:56Z</time>
      </trkpt>
      <trkpt lat="45.94966" lon="6.75976">
        <ele>1323</ele>
        <time>2021-05-22T14:29:02Z</time>
      </trkpt>
      <trkpt lat="45.94963" lon="6.75967">
        <ele>1323</ele>
        <time>2021-05-22T14:29:11Z</time>
      </trkpt>
      <trkpt lat="45.94969" lon="6.75956">
        <ele>1323</ele>
        <time>2021-05-22T14:29:22Z</time>
      </trkpt>
      <trkpt lat="45.94971" lon="6.75948">
        <ele>1323</ele>
        <time>2021-05-22T14:29:27Z</time>
      </trkpt>
      <trkpt lat="45.94978" lon="6.75949">
        <ele>1323</ele>
        <time>2021-05-22T14:29:36Z</time>
      </trkpt>
      <trkpt lat="45.94983" lon="6.75941">
        <ele>1323</ele>
        <time>2021-05-22T14:29:42Z</time>
      </trkpt>
      <trkpt lat="45.94986" lon="6.75931">
        <ele>1323</ele>
        <time>2021-05-22T14:29:48Z</time>
      </trkpt>
      <trkpt lat="45.94996" lon="6.75921">
        <ele>1322</ele>
        <time>2021-05-22T14:30:08Z</time>
      </trkpt>
      <trkpt lat="45.95" lon="6.75915">
        <ele>1321</ele>
        <time>2021-05-22T14:30:15Z</time>
      </trkpt>
      <trkpt lat="45.95001" lon="6.75902">
        <ele>1321</ele>
        <time>2021-05-22T14:30:22Z</time>
      </trkpt>
      <trkpt lat="45.95002" lon="6.7589">
        <ele>1321</ele>
        <time>2021-05-22T14:30:27Z</time>
      </trkpt>
      <trkpt lat="45.95002" lon="6.75882">
        <ele>1321</ele>
        <time>2021-05-22T14:30:30Z</time>
      </trkpt>
      <trkpt lat="45.95004" lon="6.75875">
        <ele>1320</ele>
        <time>2021-05-22T14:30:33Z</time>
      </trkpt>
      <trkpt lat="45.95006" lon="6.75866">
        <ele>1319</ele>
        <time>2021-05-22T14:30:37Z</time>
      </trkpt>
      <trkpt lat="45.95021" lon="6.75841">
        <ele>1313</ele>
        <time>2021-05-22T14:30:59Z</time>
      </trkpt>
      <trkpt lat="45.95025" lon="6.75834">
        <ele>1314</ele>
        <time>2021-05-22T14:31:03Z</time>
      </trkpt>
      <trkpt lat="45.95032" lon="6.75816">
        <ele>1311</ele>
        <time>2021-05-22T14:31:14Z</time>
      </trkpt>
      <trkpt lat="45.95033" lon="6.75808">
        <ele>1310</ele>
        <time>2021-05-22T14:31:19Z</time>
      </trkpt>
      <trkpt lat="45.95034" lon="6.75799">
        <ele>1310</ele>
        <time>2021-05-22T14:31:23Z</time>
      </trkpt>
      <trkpt lat="45.95033" lon="6.75788">
        <ele>1307</ele>
        <time>2021-05-22T14:31:31Z</time>
      </trkpt>
      <trkpt lat="45.9503" lon="6.75779">
        <ele>1307</ele>
        <time>2021-05-22T14:31:33Z</time>
      </trkpt>
      <trkpt lat="45.95024" lon="6.75762">
        <ele>1307</ele>
        <time>2021-05-22T14:31:41Z</time>
      </trkpt>
      <trkpt lat="45.95022" lon="6.75755">
        <ele>1305</ele>
        <time>2021-05-22T14:31:44Z</time>
      </trkpt>
      <trkpt lat="45.95022" lon="6.75747">
        <ele>1306</ele>
        <time>2021-05-22T14:31:48Z</time>
      </trkpt>
      <trkpt lat="45.9502" lon="6.7574">
        <ele>1306</ele>
        <time>2021-05-22T14:31:53Z</time>
      </trkpt>
      <trkpt lat="45.95018" lon="6.75731">
        <ele>1306</ele>
        <time>2021-05-22T14:31:58Z</time>
      </trkpt>
      <trkpt lat="45.95012" lon="6.75707">
        <ele>1304</ele>
        <time>2021-05-22T14:32:13Z</time>
      </trkpt>
      <trkpt lat="45.95011" lon="6.75698">
        <ele>1307</ele>
        <time>2021-05-22T14:32:17Z</time>
      </trkpt>
      <trkpt lat="45.95009" lon="6.75687">
        <ele>1306</ele>
        <time>2021-05-22T14:32:25Z</time>
      </trkpt>
      <trkpt lat="45.95008" lon="6.75678">
        <ele>1306</ele>
        <time>2021-05-22T14:32:29Z</time>
      </trkpt>
      <trkpt lat="45.95007" lon="6.75669">
        <ele>1305</ele>
        <time>2021-05-22T14:32:34Z</time>
      </trkpt>
      <trkpt lat="45.95009" lon="6.7566">
        <ele>1306</ele>
        <time>2021-05-22T14:32:44Z</time>
      </trkpt>
      <trkpt lat="45.95012" lon="6.75648">
        <ele>1306</ele>
        <time>2021-05-22T14:32:55Z</time>
      </trkpt>
      <trkpt lat="45.95015" lon="6.75629">
        <ele>1308</ele>
        <time>2021-05-22T14:33:07Z</time>
      </trkpt>
      <trkpt lat="45.95023" lon="6.75619">
        <ele>1309</ele>
        <time>2021-05-22T14:33:17Z</time>
      </trkpt>
      <trkpt lat="45.95026" lon="6.75612">
        <ele>1308</ele>
        <time>2021-05-22T14:33:22Z</time>
      </trkpt>
      <trkpt lat="45.95029" lon="6.75605">
        <ele>1307</ele>
        <time>2021-05-22T14:33:26Z</time>
      </trkpt>
      <trkpt lat="45.95034" lon="6.75599">
        <ele>1308</ele>
        <time>2021-05-22T14:33:30Z</time>
      </trkpt>
      <trkpt lat="45.95038" lon="6.75594">
        <ele>1308</ele>
        <time>2021-05-22T14:33:34Z</time>
      </trkpt>
      <trkpt lat="45.95046" lon="6.7559">
        <ele>1306</ele>
        <time>2021-05-22T14:33:43Z</time>
      </trkpt>
      <trkpt lat="45.95057" lon="6.75585">
        <ele>1305</ele>
        <time>2021-05-22T14:33:52Z</time>
      </trkpt>
      <trkpt lat="45.95067" lon="6.75584">
        <ele>1302</ele>
        <time>2021-05-22T14:34:05Z</time>
      </trkpt>
      <trkpt lat="45.95073" lon="6.7558">
        <ele>1301</ele>
        <time>2021-05-22T14:34:10Z</time>
      </trkpt>
      <trkpt lat="45.95079" lon="6.75577">
        <ele>1301</ele>
        <time>2021-05-22T14:34:14Z</time>
      </trkpt>
      <trkpt lat="45.95098" lon="6.7556">
        <ele>1301</ele>
        <time>2021-05-22T14:34:28Z</time>
      </trkpt>
      <trkpt lat="45.95101" lon="6.75552">
        <ele>1301</ele>
        <time>2021-05-22T14:34:33Z</time>
      </trkpt>
      <trkpt lat="45.95102" lon="6.75538">
        <ele>1302</ele>
        <time>2021-05-22T14:34:42Z</time>
      </trkpt>
      <trkpt lat="45.95102" lon="6.75529">
        <ele>1303</ele>
        <time>2021-05-22T14:34:52Z</time>
      </trkpt>
      <trkpt lat="45.95106" lon="6.75518">
        <ele>1304</ele>
        <time>2021-05-22T14:35:01Z</time>
      </trkpt>
      <trkpt lat="45.95107" lon="6.7551">
        <ele>1304</ele>
        <time>2021-05-22T14:35:06Z</time>
      </trkpt>
      <trkpt lat="45.95112" lon="6.75504">
        <ele>1303</ele>
        <time>2021-05-22T14:35:11Z</time>
      </trkpt>
      <trkpt lat="45.95114" lon="6.75494">
        <ele>1305</ele>
        <time>2021-05-22T14:35:18Z</time>
      </trkpt>
      <trkpt lat="45.95115" lon="6.75487">
        <ele>1305</ele>
        <time>2021-05-22T14:35:22Z</time>
      </trkpt>
      <trkpt lat="45.95113" lon="6.75479">
        <ele>1304</ele>
        <time>2021-05-22T14:35:27Z</time>
      </trkpt>
      <trkpt lat="45.95109" lon="6.75473">
        <ele>1304</ele>
        <time>2021-05-22T14:35:31Z</time>
      </trkpt>
      <trkpt lat="45.95106" lon="6.75462">
        <ele>1305</ele>
        <time>2021-05-22T14:35:40Z</time>
      </trkpt>
      <trkpt lat="45.95103" lon="6.7544">
        <ele>1308</ele>
        <time>2021-05-22T14:35:59Z</time>
      </trkpt>
      <trkpt lat="45.95102" lon="6.75419">
        <ele>1309</ele>
        <time>2021-05-22T14:36:15Z</time>
      </trkpt>
      <trkpt lat="45.95104" lon="6.7541">
        <ele>1309</ele>
        <time>2021-05-22T14:36:19Z</time>
      </trkpt>
      <trkpt lat="45.95105" lon="6.75398">
        <ele>1308</ele>
        <time>2021-05-22T14:36:27Z</time>
      </trkpt>
      <trkpt lat="45.95106" lon="6.75381">
        <ele>1306</ele>
        <time>2021-05-22T14:36:36Z</time>
      </trkpt>
      <trkpt lat="45.95104" lon="6.75373">
        <ele>1306</ele>
        <time>2021-05-22T14:36:42Z</time>
      </trkpt>
      <trkpt lat="45.95101" lon="6.75357">
        <ele>1308</ele>
        <time>2021-05-22T14:36:53Z</time>
      </trkpt>
      <trkpt lat="45.95102" lon="6.7534">
        <ele>1307</ele>
        <time>2021-05-22T14:37:02Z</time>
      </trkpt>
      <trkpt lat="45.95103" lon="6.7533">
        <ele>1308</ele>
        <time>2021-05-22T14:37:08Z</time>
      </trkpt>
      <trkpt lat="45.95103" lon="6.75315">
        <ele>1307</ele>
        <time>2021-05-22T14:37:17Z</time>
      </trkpt>
      <trkpt lat="45.95103" lon="6.75307">
        <ele>1308</ele>
        <time>2021-05-22T14:37:26Z</time>
      </trkpt>
      <trkpt lat="45.95097" lon="6.75303">
        <ele>1307</ele>
        <time>2021-05-22T14:37:46Z</time>
      </trkpt>
      <trkpt lat="45.95097" lon="6.75295">
        <ele>1305</ele>
        <time>2021-05-22T14:38:04Z</time>
      </trkpt>
      <trkpt lat="45.95104" lon="6.75291">
        <ele>1306</ele>
        <time>2021-05-22T14:39:02Z</time>
      </trkpt>
      <trkpt lat="45.95105" lon="6.75283">
        <ele>1306</ele>
        <time>2021-05-22T14:39:07Z</time>
      </trkpt>
      <trkpt lat="45.95108" lon="6.75237">
        <ele>1300</ele>
        <time>2021-05-22T14:39:32Z</time>
      </trkpt>
      <trkpt lat="45.95108" lon="6.75228">
        <ele>1301</ele>
        <time>2021-05-22T14:39:36Z</time>
      </trkpt>
      <trkpt lat="45.95109" lon="6.75212">
        <ele>1299</ele>
        <time>2021-05-22T14:39:49Z</time>
      </trkpt>
      <trkpt lat="45.95105" lon="6.75204">
        <ele>1297</ele>
        <time>2021-05-22T14:39:54Z</time>
      </trkpt>
      <trkpt lat="45.95101" lon="6.75198">
        <ele>1298</ele>
        <time>2021-05-22T14:39:59Z</time>
      </trkpt>
      <trkpt lat="45.95093" lon="6.75191">
        <ele>1295</ele>
        <time>2021-05-22T14:40:07Z</time>
      </trkpt>
      <trkpt lat="45.95087" lon="6.75185">
        <ele>1296</ele>
        <time>2021-05-22T14:40:11Z</time>
      </trkpt>
      <trkpt lat="45.95077" lon="6.75178">
        <ele>1292</ele>
        <time>2021-05-22T14:40:27Z</time>
      </trkpt>
      <trkpt lat="45.95068" lon="6.75176">
        <ele>1291</ele>
        <time>2021-05-22T14:40:34Z</time>
      </trkpt>
      <trkpt lat="45.95054" lon="6.75173">
        <ele>1290</ele>
        <time>2021-05-22T14:40:44Z</time>
      </trkpt>
      <trkpt lat="45.95029" lon="6.75157">
        <ele>1286</ele>
        <time>2021-05-22T14:41:02Z</time>
      </trkpt>
      <trkpt lat="45.95023" lon="6.75149">
        <ele>1285</ele>
        <time>2021-05-22T14:41:11Z</time>
      </trkpt>
      <trkpt lat="45.95017" lon="6.75131">
        <ele>1285</ele>
        <time>2021-05-22T14:41:27Z</time>
      </trkpt>
      <trkpt lat="45.95011" lon="6.75118">
        <ele>1287</ele>
        <time>2021-05-22T14:41:41Z</time>
      </trkpt>
      <trkpt lat="45.95006" lon="6.751">
        <ele>1288</ele>
        <time>2021-05-22T14:41:53Z</time>
      </trkpt>
      <trkpt lat="45.95003" lon="6.75093">
        <ele>1288</ele>
        <time>2021-05-22T14:41:58Z</time>
      </trkpt>
      <trkpt lat="45.94999" lon="6.75082">
        <ele>1290</ele>
        <time>2021-05-22T14:42:12Z</time>
      </trkpt>
      <trkpt lat="45.94996" lon="6.75073">
        <ele>1291</ele>
        <time>2021-05-22T14:42:24Z</time>
      </trkpt>
      <trkpt lat="45.94991" lon="6.75068">
        <ele>1291</ele>
        <time>2021-05-22T14:42:31Z</time>
      </trkpt>
      <trkpt lat="45.94987" lon="6.75058">
        <ele>1294</ele>
        <time>2021-05-22T14:42:47Z</time>
      </trkpt>
      <trkpt lat="45.94982" lon="6.75047">
        <ele>1296</ele>
        <time>2021-05-22T14:43:01Z</time>
      </trkpt>
      <trkpt lat="45.94979" lon="6.75037">
        <ele>1298</ele>
        <time>2021-05-22T14:43:10Z</time>
      </trkpt>
      <trkpt lat="45.94975" lon="6.75032">
        <ele>1298</ele>
        <time>2021-05-22T14:43:16Z</time>
      </trkpt>
      <trkpt lat="45.94971" lon="6.75023">
        <ele>1300</ele>
        <time>2021-05-22T14:43:24Z</time>
      </trkpt>
      <trkpt lat="45.94967" lon="6.75015">
        <ele>1301</ele>
        <time>2021-05-22T14:43:32Z</time>
      </trkpt>
      <trkpt lat="45.94961" lon="6.75012">
        <ele>1300</ele>
        <time>2021-05-22T14:43:36Z</time>
      </trkpt>
      <trkpt lat="45.94959" lon="6.74999">
        <ele>1300</ele>
        <time>2021-05-22T14:43:47Z</time>
      </trkpt>
      <trkpt lat="45.94958" lon="6.74991">
        <ele>1299</ele>
        <time>2021-05-22T14:43:53Z</time>
      </trkpt>
      <trkpt lat="45.94956" lon="6.74983">
        <ele>1299</ele>
        <time>2021-05-22T14:44:01Z</time>
      </trkpt>
      <trkpt lat="45.94955" lon="6.74973">
        <ele>1300</ele>
        <time>2021-05-22T14:44:11Z</time>
      </trkpt>
      <trkpt lat="45.94947" lon="6.74949">
        <ele>1302</ele>
        <time>2021-05-22T14:44:34Z</time>
      </trkpt>
      <trkpt lat="45.9494" lon="6.74943">
        <ele>1304</ele>
        <time>2021-05-22T14:44:49Z</time>
      </trkpt>
      <trkpt lat="45.94902" lon="6.74925">
        <ele>1307</ele>
        <time>2021-05-22T14:45:30Z</time>
      </trkpt>
      <trkpt lat="45.9489" lon="6.74925">
        <ele>1307</ele>
        <time>2021-05-22T14:45:41Z</time>
      </trkpt>
      <trkpt lat="45.94883" lon="6.74924">
        <ele>1308</ele>
        <time>2021-05-22T14:45:45Z</time>
      </trkpt>
      <trkpt lat="45.94864" lon="6.74887">
        <ele>1307</ele>
        <time>2021-05-22T14:46:22Z</time>
      </trkpt>
      <trkpt lat="45.94854" lon="6.74855">
        <ele>1308</ele>
        <time>2021-05-22T14:46:48Z</time>
      </trkpt>
      <trkpt lat="45.94844" lon="6.74841">
        <ele>1309</ele>
        <time>2021-05-22T14:47:02Z</time>
      </trkpt>
      <trkpt lat="45.94837" lon="6.74833">
        <ele>1310</ele>
        <time>2021-05-22T14:47:17Z</time>
      </trkpt>
      <trkpt lat="45.94837" lon="6.74815">
        <ele>1312</ele>
        <time>2021-05-22T14:47:31Z</time>
      </trkpt>
      <trkpt lat="45.94841" lon="6.7478">
        <ele>1314</ele>
        <time>2021-05-22T14:47:55Z</time>
      </trkpt>
      <trkpt lat="45.94847" lon="6.74765">
        <ele>1316</ele>
        <time>2021-05-22T14:48:11Z</time>
      </trkpt>
      <trkpt lat="45.94854" lon="6.74738">
        <ele>1318</ele>
        <time>2021-05-22T14:48:38Z</time>
      </trkpt>
      <trkpt lat="45.94865" lon="6.74715">
        <ele>1319</ele>
        <time>2021-05-22T14:48:58Z</time>
      </trkpt>
      <trkpt lat="45.94867" lon="6.74691">
        <ele>1320</ele>
        <time>2021-05-22T14:49:10Z</time>
      </trkpt>
      <trkpt lat="45.94866" lon="6.7467">
        <ele>1322</ele>
        <time>2021-05-22T14:49:31Z</time>
      </trkpt>
      <trkpt lat="45.94875" lon="6.7462">
        <ele>1324</ele>
        <time>2021-05-22T14:50:15Z</time>
      </trkpt>
      <trkpt lat="45.94879" lon="6.74563">
        <ele>1327</ele>
        <time>2021-05-22T14:51:05Z</time>
      </trkpt>
      <trkpt lat="45.94887" lon="6.74534">
        <ele>1331</ele>
        <time>2021-05-22T14:51:35Z</time>
      </trkpt>
      <trkpt lat="45.94893" lon="6.74503">
        <ele>1334</ele>
        <time>2021-05-22T14:52:12Z</time>
      </trkpt>
    </trkseg>
  </trk>
  <rte>
    <name><![CDATA[4 avr. 2019 à 23:11:12]]></name>
    <cmt><![CDATA[4 avr. 2019 à 23:11:12]]></cmt>
    <desc><![CDATA[{DC1}Heure de fin	: 
Durée totale	: 0h00:00
Moyenne globale	: -
Pente moyenne	: 0.00 %
Aire incluse	: 7.4932 ha
Détails par segments
distance  | durée    | vit.moy. | vit.max. | déniv. + | déniv -
   km     | hh:mn:ss |   km/h   |   km/h   |    m     |    m
     0.81 | 00:00:00 |      0.0 |      0.0 |        0 |        0{DC2}]]></desc>
      <rtept lat="45.60077" lon="6.18221">
        <ele>1608.6</ele>
      </rtept>
      <rtept lat="45.59468" lon="6.1822">
        <ele>1760.9</ele>
      </rtept>
      <rtept lat="45.59468" lon="6.1822">
        <ele>1760.9</ele>
      </rtept>
    </rte>
  <rte>
    <name><![CDATA[10 févr. 2019 à 15:16:12]]></name>
    <cmt><![CDATA[10 févr. 2019 à 15:16:12]]></cmt>
    <desc><![CDATA[{DC1}Heure de fin	: 00:09:21
Durée totale	: -17690439h43:48
Moyenne globale	: -
Pente moyenne	: 7.00 %
Aire incluse	: 221.0936 ha
Détails par segments
distance  | durée    | vit.moy. | vit.max. | déniv. + | déniv -
   km     | hh:mn:ss |   km/h   |   km/h   |    m     |    m
     7.48 | 00:00:00 |      0.0 |      0.0 |        0 |        0{DC2}]]></desc>
      <rtept lat="45.55203" lon="5.93805">
        <ele>376</ele>
      </rtept>
      <rtept lat="45.55177" lon="5.93873">
        <ele>369</ele>
      </rtept>
      <rtept lat="45.55176" lon="5.93942">
        <ele>367</ele>
      </rtept>
      <rtept lat="45.55105" lon="5.93942">
        <ele>367</ele>
      </rtept>
      <rtept lat="45.54993" lon="5.93908">
        <ele>371</ele>
      </rtept>
      <rtept lat="45.54929" lon="5.94099">
        <ele>370</ele>
      </rtept>
      <rtept lat="45.54908" lon="5.94204">
        <ele>367</ele>
      </rtept>
      <rtept lat="45.54991" lon="5.94287">
        <ele>365</ele>
      </rtept>
      <rtept lat="45.5506" lon="5.94384">
        <ele>361</ele>
      </rtept>
      <rtept lat="45.55147" lon="5.94384">
        <ele>357</ele>
      </rtept>
      <rtept lat="45.55129" lon="5.94607">
        <ele>358</ele>
      </rtept>
      <rtept lat="45.55029" lon="5.94809">
        <ele>355</ele>
      </rtept>
      <rtept lat="45.54884" lon="5.94886">
        <ele>346</ele>
      </rtept>
      <rtept lat="45.5477" lon="5.94931">
        <ele>342</ele>
      </rtept>
      <rtept lat="45.5468" lon="5.95004">
        <ele>339</ele>
      </rtept>
      <rtept lat="45.54596" lon="5.95133">
        <ele>340</ele>
      </rtept>
      <rtept lat="45.54446" lon="5.95195">
        <ele>343</ele>
      </rtept>
      <rtept lat="45.543" lon="5.95262">
        <ele>344</ele>
      </rtept>
      <rtept lat="45.54156" lon="5.95212">
        <ele>337</ele>
      </rtept>
      <rtept lat="45.54041" lon="5.95204">
        <ele>338</ele>
      </rtept>
      <rtept lat="45.53917" lon="5.95141">
        <ele>343</ele>
      </rtept>
      <rtept lat="45.53844" lon="5.95135">
        <ele>347</ele>
      </rtept>
      <rtept lat="45.53765" lon="5.9503">
        <ele>349</ele>
      </rtept>
      <rtept lat="45.5381" lon="5.94993">
        <ele>352</ele>
      </rtept>
      <rtept lat="45.53781" lon="5.94901">
        <ele>358</ele>
      </rtept>
      <rtept lat="45.53711" lon="5.94845">
        <ele>365</ele>
      </rtept>
      <rtept lat="45.53702" lon="5.94764">
        <ele>369</ele>
      </rtept>
      <rtept lat="45.53817" lon="5.94807">
        <ele>376</ele>
      </rtept>
      <rtept lat="45.53865" lon="5.94633">
        <ele>389</ele>
      </rtept>
      <rtept lat="45.53778" lon="5.94491">
        <ele>408</ele>
      </rtept>
      <rtept lat="45.53757" lon="5.94371">
        <ele>425</ele>
      </rtept>
      <rtept lat="45.53775" lon="5.94279">
        <ele>434</ele>
      </rtept>
      <rtept lat="45.53726" lon="5.94227">
        <ele>442</ele>
      </rtept>
      <rtept lat="45.53572" lon="5.94146">
        <ele>468</ele>
      </rtept>
      <rtept lat="45.53664" lon="5.94039">
        <ele>483</ele>
      </rtept>
      <rtept lat="45.53532" lon="5.93983">
        <ele>505</ele>
      </rtept>
      <rtept lat="45.53416" lon="5.93985">
        <ele>516</ele>
      </rtept>
      <rtept lat="45.5355" lon="5.93869">
        <ele>532</ele>
      </rtept>
      <rtept lat="45.5359" lon="5.93845">
        <ele>537</ele>
      </rtept>
      <rtept lat="45.5355" lon="5.93802">
        <ele>544</ele>
      </rtept>
      <rtept lat="45.53724" lon="5.93554">
        <ele>587</ele>
      </rtept>
      <rtept lat="45.53691" lon="5.93339">
        <ele>592</ele>
      </rtept>
      <rtept lat="45.5376" lon="5.93178">
        <ele>575</ele>
      </rtept>
      <rtept lat="45.53843" lon="5.93069">
        <ele>555</ele>
      </rtept>
      <rtept lat="45.53939" lon="5.93157">
        <ele>541</ele>
      </rtept>
      <rtept lat="45.54068" lon="5.93234">
        <ele>522</ele>
      </rtept>
      <rtept lat="45.54219" lon="5.93247">
        <ele>514</ele>
      </rtept>
      <rtept lat="45.54355" lon="5.93232">
        <ele>512</ele>
      </rtept>
      <rtept lat="45.54489" lon="5.9326">
        <ele>508</ele>
      </rtept>
      <rtept lat="45.54636" lon="5.93249">
        <ele>510</ele>
      </rtept>
      <rtept lat="45.54758" lon="5.93249">
        <ele>510</ele>
      </rtept>
      <rtept lat="45.54818" lon="5.93298">
        <ele>507</ele>
      </rtept>
      <rtept lat="45.54796" lon="5.93418">
        <ele>496</ele>
      </rtept>
      <rtept lat="45.5491" lon="5.93433">
        <ele>483</ele>
      </rtept>
      <rtept lat="45.55126" lon="5.9341">
        <ele>463</ele>
      </rtept>
      <rtept lat="45.55256" lon="5.93453">
        <ele>444</ele>
      </rtept>
      <rtept lat="45.55329" lon="5.93558">
        <ele>430</ele>
      </rtept>
      <rtept lat="45.55222" lon="5.93642">
        <ele>415</ele>
      </rtept>
      <rtept lat="45.55195" lon="5.93811">
        <ele>375</ele>
      </rtept>
    </rte>
  <rte>
    <name><![CDATA[10 févr. 2019 à 15:15:48]]></name>
    <cmt><![CDATA[10 févr. 2019 à 15:15:48]]></cmt>
    <desc><![CDATA[{DC1}Heure de fin	: 00:09:21
Durée totale	: -17690439h44:12
Moyenne globale	: -
Pente moyenne	: nan %
Aire incluse	: 0.0000 ha
Détails par segments
distance  | durée    | vit.moy. | vit.max. | déniv. + | déniv -
   km     | hh:mn:ss |   km/h   |   km/h   |    m     |    m
     0.00 | 00:00:00 |      0.0 |      0.0 |        0 |        0{DC2}]]></desc>
      <rtept lat="45.5175" lon="5.93483">
        <ele>732.3</ele>
      </rtept>
    </rte>
  <rte>
    <name><![CDATA[10 févr. 2019 à 15:06:08]]></name>
    <cmt><![CDATA[10 févr. 2019 à 15:06:08]]></cmt>
    <desc><![CDATA[{DC1}Heure de fin	: 
Durée totale	: 0h00:00
Moyenne globale	: -
Pente moyenne	: 8.03 %
Aire incluse	: 204.0794 ha
Détails par segments
distance  | durée    | vit.moy. | vit.max. | déniv. + | déniv -
   km     | hh:mn:ss |   km/h   |   km/h   |    m     |    m
    12.88 | 00:00:00 |      0.0 |      0.0 |        0 |        0{DC2}]]></desc>
      <rtept lat="45.5509" lon="5.9394">
        <ele>368</ele>
      </rtept>
      <rtept lat="45.55217" lon="5.93791">
        <ele>377</ele>
      </rtept>
    </rte>
  <rte>
    <name><![CDATA[10 févr. 2019 à 14:22:06]]></name>
    <cmt><![CDATA[10 févr. 2019 à 14:22:06]]></cmt>
    <desc><![CDATA[{DC1}Heure de fin	: 00:09:21
Durée totale	: -17690438h37:54
Moyenne globale	: -
Pente moyenne	: 5.62 %
Aire incluse	: 5.7967 ha
Détails par segments
distance  | durée    | vit.moy. | vit.max. | déniv. + | déniv -
   km     | hh:mn:ss |   km/h   |   km/h   |    m     |    m
     3.30 | 00:00:00 |      0.0 |      0.0 |        0 |        0{DC2}]]></desc>
      <rtept lat="45.55169" lon="5.93089">
        <ele>415</ele>
      </rtept>
      <rtept lat="45.5518" lon="5.93905">
        <ele>366</ele>
      </rtept>
    </rte>
  <rte>
    <name><![CDATA[10 févr. 2019 à 09:50:45]]></name>
    <cmt><![CDATA[10 févr. 2019 à 09:50:45]]></cmt>
    <desc><![CDATA[{DC1}Heure de fin	: 00:09:21
Durée totale	: -17690433h09:14
Moyenne globale	: -
Pente moyenne	: 0.00 %
Aire incluse	: 50.7119 ha
Détails par segments
distance  | durée    | vit.moy. | vit.max. | déniv. + | déniv -
   km     | hh:mn:ss |   km/h   |   km/h   |    m     |    m
     4.33 | 00:00:00 |      0.0 |      0.0 |        0 |        0{DC2}]]></desc>
      <rtept lat="45.5503" lon="5.93918">
        <ele>373.6</ele>
      </rtept>
      <rtept lat="45.55191" lon="5.93893">
        <ele>366.7</ele>
      </rtept>
    </rte>
  <rte>
    <name><![CDATA[10 févr. 2019 à 09:07:08]]></name>
    <cmt><![CDATA[10 févr. 2019 à 09:07:08]]></cmt>
    <desc><![CDATA[{DC1}Heure de fin	: 00:09:21
Durée totale	: -17690433h52:52
Moyenne globale	: -
Pente moyenne	: nan %
Aire incluse	: 0.0000 ha
Détails par segments
distance  | durée    | vit.moy. | vit.max. | déniv. + | déniv -
   km     | hh:mn:ss |   km/h   |   km/h   |    m     |    m
     0.00 | 00:00:00 |      0.0 |      0.0 |        0 |        0{DC2}]]></desc>
      <rtept lat="45.55102" lon="5.93919">
        <ele>370.1</ele>
      </rtept>
    </rte>
  <rte>
    <name><![CDATA[10 févr. 2019 à 09:02:25]]></name>
    <cmt><![CDATA[10 févr. 2019 à 09:02:25]]></cmt>
    <desc><![CDATA[{DC1}Heure de fin	: 00:09:21
Durée totale	: -17690433h57:35
Moyenne globale	: -
Pente moyenne	: nan %
Aire incluse	: 0.0000 ha
Détails par segments
distance  | durée    | vit.moy. | vit.max. | déniv. + | déniv -
   km     | hh:mn:ss |   km/h   |   km/h   |    m     |    m
     0.00 | 00:00:00 |      0.0 |      0.0 |        0 |        0{DC2}]]></desc>
      <rtept lat="45.55207" lon="5.93813">
        <ele>375.2</ele>
      </rtept>
    </rte>
  <rte>
    <name><![CDATA[10 févr. 2019 à 09:00:27]]></name>
    <cmt><![CDATA[10 févr. 2019 à 09:00:27]]></cmt>
    <desc><![CDATA[{DC1}Heure de fin	: 00:09:21
Durée totale	: -17690433h59:32
Moyenne globale	: -
Pente moyenne	: nan %
Aire incluse	: 0.0000 ha
Détails par segments
distance  | durée    | vit.moy. | vit.max. | déniv. + | déniv -
   km     | hh:mn:ss |   km/h   |   km/h   |    m     |    m
     0.00 | 00:00:00 |      0.0 |      0.0 |        0 |        0{DC2}]]></desc>
      <rtept lat="45.55244" lon="5.93858">
        <ele>366.6</ele>
      </rtept>
    </rte>
</gpx>